<?xml version="1.0" encoding="UTF-8" standalone="no" ?>
<gpx xmlns="http://www.topografix.com/GPX/1/1" xmlns:xsi="http://www.w3.org/2001/XMLSchema-instance" xsi:schemaLocation="http://www.topografix.com/GPX/1/1 http://www.topografix.com/GPX/1/1/gpx.xsd" version="1.1" creator="VisuGPX - https://www.visugpx.com">
  <metadata>
    <name>Vacances 2021</name>
  </metadata>
  <trk>
    <name><![CDATA[Journal actif: 2021-07-27 10:14]]></name>
    <trkseg>
      <trkpt lat="49.4025" lon="3.51259">
        <ele>40.51</ele>
        <time>2021-07-27T12:14:33Z</time>
      </trkpt>
      <trkpt lat="49.40235" lon="3.51276">
        <ele>44.36</ele>
        <time>2021-07-27T12:14:48Z</time>
      </trkpt>
      <trkpt lat="49.40234" lon="3.51277">
        <ele>44.36</ele>
        <time>2021-07-27T12:14:49Z</time>
      </trkpt>
      <trkpt lat="49.40226" lon="3.51281">
        <ele>41.95</ele>
        <time>2021-07-27T12:15:00Z</time>
      </trkpt>
      <trkpt lat="49.40221" lon="3.51281">
        <ele>41.95</ele>
        <time>2021-07-27T12:15:02Z</time>
      </trkpt>
      <trkpt lat="49.40194" lon="3.51281">
        <ele>41.95</ele>
        <time>2021-07-27T12:15:17Z</time>
      </trkpt>
      <trkpt lat="49.40194" lon="3.51281">
        <ele>42.92</ele>
        <time>2021-07-27T12:15:21Z</time>
      </trkpt>
      <trkpt lat="49.40188" lon="3.51281">
        <ele>42.92</ele>
        <time>2021-07-27T12:15:22Z</time>
      </trkpt>
      <trkpt lat="49.40185" lon="3.51283">
        <ele>42.92</ele>
        <time>2021-07-27T12:15:23Z</time>
      </trkpt>
      <trkpt lat="49.40185" lon="3.51287">
        <ele>42.92</ele>
        <time>2021-07-27T12:15:24Z</time>
      </trkpt>
      <trkpt lat="49.40184" lon="3.51292">
        <ele>42.44</ele>
        <time>2021-07-27T12:15:25Z</time>
      </trkpt>
      <trkpt lat="49.40175" lon="3.51356">
        <ele>43.4</ele>
        <time>2021-07-27T12:15:37Z</time>
      </trkpt>
      <trkpt lat="49.40155" lon="3.51454">
        <ele>47.24</ele>
        <time>2021-07-27T12:15:54Z</time>
      </trkpt>
      <trkpt lat="49.40155" lon="3.51461">
        <ele>49.16</ele>
        <time>2021-07-27T12:16:00Z</time>
      </trkpt>
      <trkpt lat="49.40155" lon="3.51461">
        <ele>49.16</ele>
        <time>2021-07-27T12:16:01Z</time>
      </trkpt>
      <trkpt lat="49.40155" lon="3.51462">
        <ele>49.16</ele>
        <time>2021-07-27T12:16:02Z</time>
      </trkpt>
      <trkpt lat="49.40157" lon="3.51462">
        <ele>48.68</ele>
        <time>2021-07-27T12:16:03Z</time>
      </trkpt>
      <trkpt lat="49.40161" lon="3.51464">
        <ele>48.2</ele>
        <time>2021-07-27T12:16:04Z</time>
      </trkpt>
      <trkpt lat="49.40214" lon="3.51488">
        <ele>46.76</ele>
        <time>2021-07-27T12:16:19Z</time>
      </trkpt>
      <trkpt lat="49.40232" lon="3.51496">
        <ele>46.28</ele>
        <time>2021-07-27T12:16:24Z</time>
      </trkpt>
      <trkpt lat="49.40234" lon="3.51505">
        <ele>45.8</ele>
        <time>2021-07-27T12:16:25Z</time>
      </trkpt>
      <trkpt lat="49.40233" lon="3.51508">
        <ele>45.8</ele>
        <time>2021-07-27T12:16:26Z</time>
      </trkpt>
      <trkpt lat="49.40232" lon="3.51511">
        <ele>45.32</ele>
        <time>2021-07-27T12:16:27Z</time>
      </trkpt>
      <trkpt lat="49.40231" lon="3.51515">
        <ele>44.84</ele>
        <time>2021-07-27T12:16:28Z</time>
      </trkpt>
      <trkpt lat="49.4023" lon="3.51518">
        <ele>44.84</ele>
        <time>2021-07-27T12:16:29Z</time>
      </trkpt>
      <trkpt lat="49.40229" lon="3.51521">
        <ele>44.84</ele>
        <time>2021-07-27T12:16:30Z</time>
      </trkpt>
      <trkpt lat="49.40227" lon="3.51524">
        <ele>44.84</ele>
        <time>2021-07-27T12:16:31Z</time>
      </trkpt>
      <trkpt lat="49.40223" lon="3.51527">
        <ele>45.32</ele>
        <time>2021-07-27T12:16:32Z</time>
      </trkpt>
      <trkpt lat="49.40223" lon="3.51527">
        <ele>45.32</ele>
        <time>2021-07-27T12:16:46Z</time>
      </trkpt>
      <trkpt lat="49.40223" lon="3.51527">
        <ele>45.32</ele>
        <time>2021-07-27T12:22:58Z</time>
      </trkpt>
      <trkpt lat="49.40223" lon="3.51527">
        <ele>45.32</ele>
        <time>2021-07-27T12:25:41Z</time>
      </trkpt>
      <trkpt lat="49.40223" lon="3.51527">
        <ele>45.32</ele>
        <time>2021-07-27T12:27:03Z</time>
      </trkpt>
      <trkpt lat="49.40228" lon="3.51524">
        <ele>45.32</ele>
        <time>2021-07-27T12:27:04Z</time>
      </trkpt>
      <trkpt lat="49.40228" lon="3.51524">
        <ele>45.32</ele>
        <time>2021-07-27T12:27:05Z</time>
      </trkpt>
      <trkpt lat="49.40228" lon="3.51524">
        <ele>45.32</ele>
        <time>2021-07-27T12:27:06Z</time>
      </trkpt>
      <trkpt lat="49.40228" lon="3.51523">
        <ele>44.84</ele>
        <time>2021-07-27T12:27:07Z</time>
      </trkpt>
      <trkpt lat="49.40229" lon="3.51521">
        <ele>45.32</ele>
        <time>2021-07-27T12:27:08Z</time>
      </trkpt>
      <trkpt lat="49.40229" lon="3.51521">
        <ele>45.32</ele>
        <time>2021-07-27T12:27:21Z</time>
      </trkpt>
      <trkpt lat="49.40228" lon="3.51524">
        <ele>45.32</ele>
        <time>2021-07-27T12:27:27Z</time>
      </trkpt>
      <trkpt lat="49.40228" lon="3.51524">
        <ele>44.84</ele>
        <time>2021-07-27T12:27:28Z</time>
      </trkpt>
      <trkpt lat="49.40228" lon="3.51524">
        <ele>44.84</ele>
        <time>2021-07-27T12:27:29Z</time>
      </trkpt>
      <trkpt lat="49.40228" lon="3.51524">
        <ele>45.32</ele>
        <time>2021-07-27T12:27:30Z</time>
      </trkpt>
      <trkpt lat="49.40228" lon="3.51524">
        <ele>45.32</ele>
        <time>2021-07-27T12:27:31Z</time>
      </trkpt>
      <trkpt lat="49.4023" lon="3.51525">
        <ele>45.32</ele>
        <time>2021-07-27T12:27:32Z</time>
      </trkpt>
      <trkpt lat="49.40259" lon="3.51527">
        <ele>44.36</ele>
        <time>2021-07-27T12:27:44Z</time>
      </trkpt>
      <trkpt lat="49.40272" lon="3.51514">
        <ele>43.88</ele>
        <time>2021-07-27T12:27:52Z</time>
      </trkpt>
      <trkpt lat="49.40276" lon="3.51516">
        <ele>43.88</ele>
        <time>2021-07-27T12:27:53Z</time>
      </trkpt>
      <trkpt lat="49.40337" lon="3.51546">
        <ele>43.88</ele>
        <time>2021-07-27T12:28:06Z</time>
      </trkpt>
      <trkpt lat="49.40393" lon="3.51572">
        <ele>43.88</ele>
        <time>2021-07-27T12:28:22Z</time>
      </trkpt>
      <trkpt lat="49.40474" lon="3.51607">
        <ele>41.95</ele>
        <time>2021-07-27T12:28:40Z</time>
      </trkpt>
      <trkpt lat="49.40502" lon="3.51621">
        <ele>44.84</ele>
        <time>2021-07-27T12:28:50Z</time>
      </trkpt>
      <trkpt lat="49.40524" lon="3.51632">
        <ele>43.88</ele>
        <time>2021-07-27T12:29:03Z</time>
      </trkpt>
      <trkpt lat="49.40607" lon="3.51671">
        <ele>41.47</ele>
        <time>2021-07-27T12:29:19Z</time>
      </trkpt>
      <trkpt lat="49.40677" lon="3.51705">
        <ele>44.36</ele>
        <time>2021-07-27T12:29:35Z</time>
      </trkpt>
      <trkpt lat="49.40701" lon="3.51717">
        <ele>46.76</ele>
        <time>2021-07-27T12:29:45Z</time>
      </trkpt>
      <trkpt lat="49.40702" lon="3.51718">
        <ele>48.68</ele>
        <time>2021-07-27T12:29:52Z</time>
      </trkpt>
      <trkpt lat="49.40706" lon="3.5172">
        <ele>48.68</ele>
        <time>2021-07-27T12:29:53Z</time>
      </trkpt>
      <trkpt lat="49.40707" lon="3.51721">
        <ele>48.68</ele>
        <time>2021-07-27T12:29:54Z</time>
      </trkpt>
      <trkpt lat="49.40705" lon="3.51715">
        <ele>49.16</ele>
        <time>2021-07-27T12:29:55Z</time>
      </trkpt>
      <trkpt lat="49.4071" lon="3.51689">
        <ele>53.01</ele>
        <time>2021-07-27T12:30:09Z</time>
      </trkpt>
      <trkpt lat="49.40725" lon="3.51617">
        <ele>53.97</ele>
        <time>2021-07-27T12:30:21Z</time>
      </trkpt>
      <trkpt lat="49.40735" lon="3.51577">
        <ele>53.49</ele>
        <time>2021-07-27T12:30:30Z</time>
      </trkpt>
      <trkpt lat="49.40731" lon="3.51569">
        <ele>53.49</ele>
        <time>2021-07-27T12:30:36Z</time>
      </trkpt>
      <trkpt lat="49.40731" lon="3.51569">
        <ele>53.49</ele>
        <time>2021-07-27T12:30:37Z</time>
      </trkpt>
      <trkpt lat="49.40727" lon="3.51567">
        <ele>53.49</ele>
        <time>2021-07-27T12:30:38Z</time>
      </trkpt>
      <trkpt lat="49.40723" lon="3.51566">
        <ele>53.01</ele>
        <time>2021-07-27T12:30:39Z</time>
      </trkpt>
      <trkpt lat="49.40719" lon="3.51564">
        <ele>53.01</ele>
        <time>2021-07-27T12:30:40Z</time>
      </trkpt>
      <trkpt lat="49.40715" lon="3.51562">
        <ele>52.53</ele>
        <time>2021-07-27T12:30:41Z</time>
      </trkpt>
      <trkpt lat="49.40653" lon="3.5154">
        <ele>52.53</ele>
        <time>2021-07-27T12:30:54Z</time>
      </trkpt>
      <trkpt lat="49.40592" lon="3.51521">
        <ele>51.57</ele>
        <time>2021-07-27T12:31:07Z</time>
      </trkpt>
      <trkpt lat="49.40579" lon="3.51514">
        <ele>52.53</ele>
        <time>2021-07-27T12:31:15Z</time>
      </trkpt>
      <trkpt lat="49.40574" lon="3.51511">
        <ele>52.53</ele>
        <time>2021-07-27T12:31:16Z</time>
      </trkpt>
      <trkpt lat="49.40569" lon="3.51508">
        <ele>51.57</ele>
        <time>2021-07-27T12:31:30Z</time>
      </trkpt>
      <trkpt lat="49.40569" lon="3.51508">
        <ele>51.57</ele>
        <time>2021-07-27T12:37:22Z</time>
      </trkpt>
      <trkpt lat="49.40569" lon="3.51508">
        <ele>51.57</ele>
        <time>2021-07-27T12:39:39Z</time>
      </trkpt>
      <trkpt lat="49.40569" lon="3.51508">
        <ele>52.53</ele>
        <time>2021-07-27T12:46:52Z</time>
      </trkpt>
      <trkpt lat="49.40569" lon="3.51508">
        <ele>52.53</ele>
        <time>2021-07-27T12:55:15Z</time>
      </trkpt>
      <trkpt lat="49.40569" lon="3.51508">
        <ele>53.01</ele>
        <time>2021-07-27T12:59:04Z</time>
      </trkpt>
      <trkpt lat="49.40569" lon="3.51508">
        <ele>53.49</ele>
        <time>2021-07-27T13:02:05Z</time>
      </trkpt>
      <trkpt lat="49.40569" lon="3.51508">
        <ele>53.01</ele>
        <time>2021-07-27T13:08:37Z</time>
      </trkpt>
      <trkpt lat="49.40569" lon="3.51508">
        <ele>54.45</ele>
        <time>2021-07-27T13:20:57Z</time>
      </trkpt>
      <trkpt lat="49.40569" lon="3.51508">
        <ele>54.45</ele>
        <time>2021-07-27T13:24:06Z</time>
      </trkpt>
      <trkpt lat="49.40569" lon="3.51508">
        <ele>53.49</ele>
        <time>2021-07-27T13:24:21Z</time>
      </trkpt>
      <trkpt lat="49.40546" lon="3.51486">
        <ele>52.53</ele>
        <time>2021-07-27T13:24:31Z</time>
      </trkpt>
      <trkpt lat="49.40565" lon="3.51425">
        <ele>52.53</ele>
        <time>2021-07-27T13:24:43Z</time>
      </trkpt>
      <trkpt lat="49.40571" lon="3.51406">
        <ele>51.57</ele>
        <time>2021-07-27T13:24:54Z</time>
      </trkpt>
      <trkpt lat="49.40571" lon="3.51406">
        <ele>51.57</ele>
        <time>2021-07-27T13:25:14Z</time>
      </trkpt>
      <trkpt lat="49.40571" lon="3.51406">
        <ele>51.57</ele>
        <time>2021-07-27T13:27:40Z</time>
      </trkpt>
      <trkpt lat="49.40571" lon="3.51406">
        <ele>52.05</ele>
        <time>2021-07-27T13:27:58Z</time>
      </trkpt>
      <trkpt lat="49.40571" lon="3.51406">
        <ele>52.05</ele>
        <time>2021-07-27T13:28:40Z</time>
      </trkpt>
      <trkpt lat="49.40571" lon="3.51406">
        <ele>51.09</ele>
        <time>2021-07-27T13:29:25Z</time>
      </trkpt>
      <trkpt lat="49.40571" lon="3.51406">
        <ele>50.61</ele>
        <time>2021-07-27T13:32:19Z</time>
      </trkpt>
      <trkpt lat="49.40571" lon="3.51406">
        <ele>49.65</ele>
        <time>2021-07-27T13:33:33Z</time>
      </trkpt>
      <trkpt lat="49.40571" lon="3.51406">
        <ele>49.16</ele>
        <time>2021-07-27T13:33:48Z</time>
      </trkpt>
      <trkpt lat="49.40571" lon="3.51406">
        <ele>49.16</ele>
        <time>2021-07-27T13:34:00Z</time>
      </trkpt>
      <trkpt lat="49.40571" lon="3.51406">
        <ele>49.16</ele>
        <time>2021-07-27T13:34:01Z</time>
      </trkpt>
      <trkpt lat="49.4058" lon="3.51374">
        <ele>49.16</ele>
        <time>2021-07-27T13:34:02Z</time>
      </trkpt>
      <trkpt lat="49.4058" lon="3.51374">
        <ele>49.16</ele>
        <time>2021-07-27T13:34:03Z</time>
      </trkpt>
      <trkpt lat="49.4058" lon="3.51374">
        <ele>49.16</ele>
        <time>2021-07-27T13:34:04Z</time>
      </trkpt>
      <trkpt lat="49.40579" lon="3.51378">
        <ele>49.16</ele>
        <time>2021-07-27T13:34:05Z</time>
      </trkpt>
      <trkpt lat="49.40578" lon="3.51379">
        <ele>49.16</ele>
        <time>2021-07-27T13:34:06Z</time>
      </trkpt>
      <trkpt lat="49.40578" lon="3.51379">
        <ele>49.16</ele>
        <time>2021-07-27T13:34:07Z</time>
      </trkpt>
      <trkpt lat="49.40578" lon="3.51379">
        <ele>49.16</ele>
        <time>2021-07-27T13:34:08Z</time>
      </trkpt>
      <trkpt lat="49.40565" lon="3.51426">
        <ele>48.68</ele>
        <time>2021-07-27T13:34:23Z</time>
      </trkpt>
      <trkpt lat="49.40546" lon="3.51487">
        <ele>48.2</ele>
        <time>2021-07-27T13:34:37Z</time>
      </trkpt>
      <trkpt lat="49.40546" lon="3.51487">
        <ele>48.2</ele>
        <time>2021-07-27T13:34:46Z</time>
      </trkpt>
      <trkpt lat="49.40543" lon="3.51496">
        <ele>48.2</ele>
        <time>2021-07-27T13:34:47Z</time>
      </trkpt>
      <trkpt lat="49.40543" lon="3.51498">
        <ele>48.2</ele>
        <time>2021-07-27T13:34:48Z</time>
      </trkpt>
      <trkpt lat="49.40545" lon="3.51497">
        <ele>48.2</ele>
        <time>2021-07-27T13:34:49Z</time>
      </trkpt>
      <trkpt lat="49.40549" lon="3.51498">
        <ele>48.2</ele>
        <time>2021-07-27T13:34:50Z</time>
      </trkpt>
      <trkpt lat="49.40552" lon="3.515">
        <ele>48.2</ele>
        <time>2021-07-27T13:34:51Z</time>
      </trkpt>
      <trkpt lat="49.40556" lon="3.51501">
        <ele>48.2</ele>
        <time>2021-07-27T13:34:52Z</time>
      </trkpt>
      <trkpt lat="49.40559" lon="3.51503">
        <ele>48.2</ele>
        <time>2021-07-27T13:34:53Z</time>
      </trkpt>
      <trkpt lat="49.40563" lon="3.51505">
        <ele>48.2</ele>
        <time>2021-07-27T13:34:54Z</time>
      </trkpt>
      <trkpt lat="49.40605" lon="3.51528">
        <ele>49.16</ele>
        <time>2021-07-27T13:35:03Z</time>
      </trkpt>
      <trkpt lat="49.40614" lon="3.5153">
        <ele>49.16</ele>
        <time>2021-07-27T13:35:05Z</time>
      </trkpt>
      <trkpt lat="49.40619" lon="3.51532">
        <ele>49.16</ele>
        <time>2021-07-27T13:35:06Z</time>
      </trkpt>
      <trkpt lat="49.40624" lon="3.51533">
        <ele>49.16</ele>
        <time>2021-07-27T13:35:07Z</time>
      </trkpt>
      <trkpt lat="49.40633" lon="3.51535">
        <ele>49.16</ele>
        <time>2021-07-27T13:35:08Z</time>
      </trkpt>
      <trkpt lat="49.40639" lon="3.51537">
        <ele>49.16</ele>
        <time>2021-07-27T13:35:09Z</time>
      </trkpt>
      <trkpt lat="49.40702" lon="3.51557">
        <ele>49.65</ele>
        <time>2021-07-27T13:35:20Z</time>
      </trkpt>
      <trkpt lat="49.40788" lon="3.51594">
        <ele>50.61</ele>
        <time>2021-07-27T13:35:35Z</time>
      </trkpt>
      <trkpt lat="49.40822" lon="3.51622">
        <ele>50.13</ele>
        <time>2021-07-27T13:35:43Z</time>
      </trkpt>
      <trkpt lat="49.40829" lon="3.5162">
        <ele>49.65</ele>
        <time>2021-07-27T13:35:44Z</time>
      </trkpt>
      <trkpt lat="49.40843" lon="3.51627">
        <ele>48.68</ele>
        <time>2021-07-27T13:35:51Z</time>
      </trkpt>
      <trkpt lat="49.40862" lon="3.51629">
        <ele>48.2</ele>
        <time>2021-07-27T13:36:02Z</time>
      </trkpt>
      <trkpt lat="49.40862" lon="3.51629">
        <ele>47.72</ele>
        <time>2021-07-27T13:36:45Z</time>
      </trkpt>
      <trkpt lat="49.40862" lon="3.51629">
        <ele>47.72</ele>
        <time>2021-07-27T13:41:45Z</time>
      </trkpt>
      <trkpt lat="49.40862" lon="3.51629">
        <ele>48.2</ele>
        <time>2021-07-27T13:43:31Z</time>
      </trkpt>
      <trkpt lat="49.40862" lon="3.51629">
        <ele>50.13</ele>
        <time>2021-07-27T13:45:10Z</time>
      </trkpt>
      <trkpt lat="49.40862" lon="3.51629">
        <ele>50.61</ele>
        <time>2021-07-27T13:47:03Z</time>
      </trkpt>
      <trkpt lat="49.40862" lon="3.51629">
        <ele>51.09</ele>
        <time>2021-07-27T13:48:13Z</time>
      </trkpt>
      <trkpt lat="49.40862" lon="3.51629">
        <ele>51.57</ele>
        <time>2021-07-27T13:49:19Z</time>
      </trkpt>
      <trkpt lat="49.40862" lon="3.51629">
        <ele>52.05</ele>
        <time>2021-07-27T13:49:40Z</time>
      </trkpt>
      <trkpt lat="49.40873" lon="3.51612">
        <ele>51.09</ele>
        <time>2021-07-27T13:49:54Z</time>
      </trkpt>
      <trkpt lat="49.40898" lon="3.51576">
        <ele>51.09</ele>
        <time>2021-07-27T13:50:06Z</time>
      </trkpt>
      <trkpt lat="49.40953" lon="3.51485">
        <ele>51.09</ele>
        <time>2021-07-27T13:50:23Z</time>
      </trkpt>
      <trkpt lat="49.40974" lon="3.51468">
        <ele>51.57</ele>
        <time>2021-07-27T13:50:33Z</time>
      </trkpt>
      <trkpt lat="49.41019" lon="3.515">
        <ele>51.57</ele>
        <time>2021-07-27T13:50:44Z</time>
      </trkpt>
      <trkpt lat="49.41035" lon="3.51506">
        <ele>52.05</ele>
        <time>2021-07-27T13:50:50Z</time>
      </trkpt>
      <trkpt lat="49.41104" lon="3.51517">
        <ele>52.53</ele>
        <time>2021-07-27T13:51:01Z</time>
      </trkpt>
      <trkpt lat="49.41162" lon="3.51525">
        <ele>54.93</ele>
        <time>2021-07-27T13:51:12Z</time>
      </trkpt>
      <trkpt lat="49.4117" lon="3.51526">
        <ele>55.89</ele>
        <time>2021-07-27T13:51:19Z</time>
      </trkpt>
      <trkpt lat="49.4121" lon="3.51534">
        <ele>57.82</ele>
        <time>2021-07-27T13:51:27Z</time>
      </trkpt>
      <trkpt lat="49.4122" lon="3.51527">
        <ele>58.3</ele>
        <time>2021-07-27T13:51:28Z</time>
      </trkpt>
      <trkpt lat="49.41232" lon="3.51516">
        <ele>58.3</ele>
        <time>2021-07-27T13:51:30Z</time>
      </trkpt>
      <trkpt lat="49.41264" lon="3.51484">
        <ele>60.7</ele>
        <time>2021-07-27T13:51:36Z</time>
      </trkpt>
      <trkpt lat="49.41269" lon="3.51474">
        <ele>61.18</ele>
        <time>2021-07-27T13:51:37Z</time>
      </trkpt>
      <trkpt lat="49.41273" lon="3.51466">
        <ele>61.66</ele>
        <time>2021-07-27T13:51:38Z</time>
      </trkpt>
      <trkpt lat="49.41274" lon="3.51453">
        <ele>62.14</ele>
        <time>2021-07-27T13:51:39Z</time>
      </trkpt>
      <trkpt lat="49.41274" lon="3.5144">
        <ele>63.1</ele>
        <time>2021-07-27T13:51:40Z</time>
      </trkpt>
      <trkpt lat="49.41274" lon="3.51426">
        <ele>63.58</ele>
        <time>2021-07-27T13:51:41Z</time>
      </trkpt>
      <trkpt lat="49.41272" lon="3.5141">
        <ele>63.58</ele>
        <time>2021-07-27T13:51:42Z</time>
      </trkpt>
      <trkpt lat="49.41266" lon="3.5136">
        <ele>63.58</ele>
        <time>2021-07-27T13:51:45Z</time>
      </trkpt>
      <trkpt lat="49.41264" lon="3.51342">
        <ele>64.55</ele>
        <time>2021-07-27T13:51:46Z</time>
      </trkpt>
      <trkpt lat="49.41267" lon="3.51305">
        <ele>66.95</ele>
        <time>2021-07-27T13:51:47Z</time>
      </trkpt>
      <trkpt lat="49.4127" lon="3.51286">
        <ele>69.83</ele>
        <time>2021-07-27T13:51:48Z</time>
      </trkpt>
      <trkpt lat="49.4127" lon="3.51286">
        <ele>70.31</ele>
        <time>2021-07-27T13:51:49Z</time>
      </trkpt>
      <trkpt lat="49.41274" lon="3.51265">
        <ele>69.35</ele>
        <time>2021-07-27T13:51:50Z</time>
      </trkpt>
      <trkpt lat="49.41277" lon="3.51247">
        <ele>69.83</ele>
        <time>2021-07-27T13:51:51Z</time>
      </trkpt>
      <trkpt lat="49.41285" lon="3.51234">
        <ele>70.79</ele>
        <time>2021-07-27T13:51:52Z</time>
      </trkpt>
      <trkpt lat="49.41293" lon="3.5122">
        <ele>71.27</ele>
        <time>2021-07-27T13:51:53Z</time>
      </trkpt>
      <trkpt lat="49.41302" lon="3.51209">
        <ele>72.72</ele>
        <time>2021-07-27T13:51:54Z</time>
      </trkpt>
      <trkpt lat="49.41312" lon="3.51201">
        <ele>73.68</ele>
        <time>2021-07-27T13:51:55Z</time>
      </trkpt>
      <trkpt lat="49.41325" lon="3.51198">
        <ele>74.64</ele>
        <time>2021-07-27T13:51:56Z</time>
      </trkpt>
      <trkpt lat="49.41338" lon="3.512">
        <ele>75.12</ele>
        <time>2021-07-27T13:51:57Z</time>
      </trkpt>
      <trkpt lat="49.41351" lon="3.51202">
        <ele>76.08</ele>
        <time>2021-07-27T13:51:58Z</time>
      </trkpt>
      <trkpt lat="49.41422" lon="3.51216">
        <ele>79.93</ele>
        <time>2021-07-27T13:52:03Z</time>
      </trkpt>
      <trkpt lat="49.41422" lon="3.51216">
        <ele>80.41</ele>
        <time>2021-07-27T13:52:04Z</time>
      </trkpt>
      <trkpt lat="49.41444" lon="3.51207">
        <ele>80.41</ele>
        <time>2021-07-27T13:52:05Z</time>
      </trkpt>
      <trkpt lat="49.41455" lon="3.512">
        <ele>80.41</ele>
        <time>2021-07-27T13:52:06Z</time>
      </trkpt>
      <trkpt lat="49.41462" lon="3.51186">
        <ele>79.93</ele>
        <time>2021-07-27T13:52:07Z</time>
      </trkpt>
      <trkpt lat="49.41462" lon="3.51186">
        <ele>79.45</ele>
        <time>2021-07-27T13:52:08Z</time>
      </trkpt>
      <trkpt lat="49.41469" lon="3.51171">
        <ele>80.89</ele>
        <time>2021-07-27T13:52:09Z</time>
      </trkpt>
      <trkpt lat="49.41474" lon="3.51152">
        <ele>81.37</ele>
        <time>2021-07-27T13:52:10Z</time>
      </trkpt>
      <trkpt lat="49.41479" lon="3.51132">
        <ele>82.33</ele>
        <time>2021-07-27T13:52:11Z</time>
      </trkpt>
      <trkpt lat="49.41483" lon="3.51111">
        <ele>82.81</ele>
        <time>2021-07-27T13:52:12Z</time>
      </trkpt>
      <trkpt lat="49.41484" lon="3.5109">
        <ele>83.77</ele>
        <time>2021-07-27T13:52:13Z</time>
      </trkpt>
      <trkpt lat="49.41485" lon="3.51027">
        <ele>89.06</ele>
        <time>2021-07-27T13:52:16Z</time>
      </trkpt>
      <trkpt lat="49.41486" lon="3.51004">
        <ele>90.02</ele>
        <time>2021-07-27T13:52:17Z</time>
      </trkpt>
      <trkpt lat="49.41493" lon="3.50988">
        <ele>90.02</ele>
        <time>2021-07-27T13:52:18Z</time>
      </trkpt>
      <trkpt lat="49.41501" lon="3.5097">
        <ele>89.54</ele>
        <time>2021-07-27T13:52:19Z</time>
      </trkpt>
      <trkpt lat="49.41521" lon="3.50946">
        <ele>90.02</ele>
        <time>2021-07-27T13:52:20Z</time>
      </trkpt>
      <trkpt lat="49.41521" lon="3.50946">
        <ele>90.02</ele>
        <time>2021-07-27T13:52:21Z</time>
      </trkpt>
      <trkpt lat="49.41533" lon="3.5094">
        <ele>90.02</ele>
        <time>2021-07-27T13:52:22Z</time>
      </trkpt>
      <trkpt lat="49.41561" lon="3.50936">
        <ele>90.98</ele>
        <time>2021-07-27T13:52:23Z</time>
      </trkpt>
      <trkpt lat="49.41561" lon="3.50936">
        <ele>91.46</ele>
        <time>2021-07-27T13:52:24Z</time>
      </trkpt>
      <trkpt lat="49.41577" lon="3.50939">
        <ele>91.46</ele>
        <time>2021-07-27T13:52:25Z</time>
      </trkpt>
      <trkpt lat="49.41591" lon="3.50947">
        <ele>91.46</ele>
        <time>2021-07-27T13:52:26Z</time>
      </trkpt>
      <trkpt lat="49.41747" lon="3.51046">
        <ele>97.23</ele>
        <time>2021-07-27T13:52:37Z</time>
      </trkpt>
      <trkpt lat="49.41761" lon="3.51058">
        <ele>97.71</ele>
        <time>2021-07-27T13:52:38Z</time>
      </trkpt>
      <trkpt lat="49.41774" lon="3.51071">
        <ele>97.71</ele>
        <time>2021-07-27T13:52:39Z</time>
      </trkpt>
      <trkpt lat="49.41785" lon="3.51089">
        <ele>98.19</ele>
        <time>2021-07-27T13:52:40Z</time>
      </trkpt>
      <trkpt lat="49.41796" lon="3.51108">
        <ele>98.19</ele>
        <time>2021-07-27T13:52:41Z</time>
      </trkpt>
      <trkpt lat="49.41835" lon="3.51185">
        <ele>100.6</ele>
        <time>2021-07-27T13:52:45Z</time>
      </trkpt>
      <trkpt lat="49.41846" lon="3.512">
        <ele>102.04</ele>
        <time>2021-07-27T13:52:46Z</time>
      </trkpt>
      <trkpt lat="49.41857" lon="3.51212">
        <ele>105.88</ele>
        <time>2021-07-27T13:52:47Z</time>
      </trkpt>
      <trkpt lat="49.41869" lon="3.51221">
        <ele>107.32</ele>
        <time>2021-07-27T13:52:48Z</time>
      </trkpt>
      <trkpt lat="49.41881" lon="3.51225">
        <ele>106.84</ele>
        <time>2021-07-27T13:52:49Z</time>
      </trkpt>
      <trkpt lat="49.41894" lon="3.51229">
        <ele>107.32</ele>
        <time>2021-07-27T13:52:50Z</time>
      </trkpt>
      <trkpt lat="49.41905" lon="3.51232">
        <ele>106.36</ele>
        <time>2021-07-27T13:52:51Z</time>
      </trkpt>
      <trkpt lat="49.41913" lon="3.51235">
        <ele>104.92</ele>
        <time>2021-07-27T13:52:52Z</time>
      </trkpt>
      <trkpt lat="49.41927" lon="3.51241">
        <ele>104.44</ele>
        <time>2021-07-27T13:52:53Z</time>
      </trkpt>
      <trkpt lat="49.41927" lon="3.51241">
        <ele>103.48</ele>
        <time>2021-07-27T13:52:54Z</time>
      </trkpt>
      <trkpt lat="49.41933" lon="3.51249">
        <ele>103.48</ele>
        <time>2021-07-27T13:52:55Z</time>
      </trkpt>
      <trkpt lat="49.41939" lon="3.51257">
        <ele>103</ele>
        <time>2021-07-27T13:52:56Z</time>
      </trkpt>
      <trkpt lat="49.41944" lon="3.51266">
        <ele>102.52</ele>
        <time>2021-07-27T13:52:57Z</time>
      </trkpt>
      <trkpt lat="49.4195" lon="3.51278">
        <ele>102.04</ele>
        <time>2021-07-27T13:52:58Z</time>
      </trkpt>
      <trkpt lat="49.41956" lon="3.51291">
        <ele>101.56</ele>
        <time>2021-07-27T13:52:59Z</time>
      </trkpt>
      <trkpt lat="49.41977" lon="3.51333">
        <ele>103</ele>
        <time>2021-07-27T13:53:02Z</time>
      </trkpt>
      <trkpt lat="49.41985" lon="3.51345">
        <ele>103.96</ele>
        <time>2021-07-27T13:53:03Z</time>
      </trkpt>
      <trkpt lat="49.42" lon="3.51368">
        <ele>106.84</ele>
        <time>2021-07-27T13:53:05Z</time>
      </trkpt>
      <trkpt lat="49.42009" lon="3.51377">
        <ele>107.81</ele>
        <time>2021-07-27T13:53:06Z</time>
      </trkpt>
      <trkpt lat="49.42137" lon="3.51474">
        <ele>113.09</ele>
        <time>2021-07-27T13:53:17Z</time>
      </trkpt>
      <trkpt lat="49.4225" lon="3.51582">
        <ele>122.71</ele>
        <time>2021-07-27T13:53:26Z</time>
      </trkpt>
      <trkpt lat="49.42347" lon="3.51645">
        <ele>129.43</ele>
        <time>2021-07-27T13:53:33Z</time>
      </trkpt>
      <trkpt lat="49.42476" lon="3.51797">
        <ele>137.13</ele>
        <time>2021-07-27T13:53:43Z</time>
      </trkpt>
      <trkpt lat="49.42555" lon="3.51934">
        <ele>143.37</ele>
        <time>2021-07-27T13:53:50Z</time>
      </trkpt>
      <trkpt lat="49.42656" lon="3.52254">
        <ele>155.39</ele>
        <time>2021-07-27T13:54:03Z</time>
      </trkpt>
      <trkpt lat="49.4282" lon="3.52792">
        <ele>167.89</ele>
        <time>2021-07-27T13:54:24Z</time>
      </trkpt>
      <trkpt lat="49.42944" lon="3.53178">
        <ele>174.14</ele>
        <time>2021-07-27T13:54:39Z</time>
      </trkpt>
      <trkpt lat="49.42955" lon="3.53199">
        <ele>175.1</ele>
        <time>2021-07-27T13:54:40Z</time>
      </trkpt>
      <trkpt lat="49.42967" lon="3.53218">
        <ele>175.58</ele>
        <time>2021-07-27T13:54:41Z</time>
      </trkpt>
      <trkpt lat="49.42981" lon="3.53235">
        <ele>176.06</ele>
        <time>2021-07-27T13:54:42Z</time>
      </trkpt>
      <trkpt lat="49.42996" lon="3.53253">
        <ele>177.02</ele>
        <time>2021-07-27T13:54:43Z</time>
      </trkpt>
      <trkpt lat="49.4322" lon="3.53491">
        <ele>181.83</ele>
        <time>2021-07-27T13:54:57Z</time>
      </trkpt>
      <trkpt lat="49.4337" lon="3.53653">
        <ele>180.38</ele>
        <time>2021-07-27T13:55:06Z</time>
      </trkpt>
      <trkpt lat="49.43498" lon="3.53762">
        <ele>179.42</ele>
        <time>2021-07-27T13:55:13Z</time>
      </trkpt>
      <trkpt lat="49.43517" lon="3.53771">
        <ele>177.98</ele>
        <time>2021-07-27T13:55:14Z</time>
      </trkpt>
      <trkpt lat="49.43537" lon="3.53778">
        <ele>176.54</ele>
        <time>2021-07-27T13:55:15Z</time>
      </trkpt>
      <trkpt lat="49.43787" lon="3.53821">
        <ele>180.38</ele>
        <time>2021-07-27T13:55:27Z</time>
      </trkpt>
      <trkpt lat="49.4412" lon="3.53831">
        <ele>182.79</ele>
        <time>2021-07-27T13:55:43Z</time>
      </trkpt>
      <trkpt lat="49.44561" lon="3.53831">
        <ele>183.27</ele>
        <time>2021-07-27T13:56:04Z</time>
      </trkpt>
      <trkpt lat="49.44862" lon="3.53835">
        <ele>175.1</ele>
        <time>2021-07-27T13:56:18Z</time>
      </trkpt>
      <trkpt lat="49.44881" lon="3.53843">
        <ele>174.62</ele>
        <time>2021-07-27T13:56:19Z</time>
      </trkpt>
      <trkpt lat="49.449" lon="3.5385">
        <ele>175.58</ele>
        <time>2021-07-27T13:56:20Z</time>
      </trkpt>
      <trkpt lat="49.44919" lon="3.53862">
        <ele>175.58</ele>
        <time>2021-07-27T13:56:21Z</time>
      </trkpt>
      <trkpt lat="49.44937" lon="3.53878">
        <ele>175.58</ele>
        <time>2021-07-27T13:56:22Z</time>
      </trkpt>
      <trkpt lat="49.44954" lon="3.53893">
        <ele>175.58</ele>
        <time>2021-07-27T13:56:23Z</time>
      </trkpt>
      <trkpt lat="49.45041" lon="3.5397">
        <ele>176.06</ele>
        <time>2021-07-27T13:56:29Z</time>
      </trkpt>
      <trkpt lat="49.4531" lon="3.54206">
        <ele>169.81</ele>
        <time>2021-07-27T13:56:49Z</time>
      </trkpt>
      <trkpt lat="49.45321" lon="3.54214">
        <ele>168.85</ele>
        <time>2021-07-27T13:56:50Z</time>
      </trkpt>
      <trkpt lat="49.45333" lon="3.54222">
        <ele>169.33</ele>
        <time>2021-07-27T13:56:51Z</time>
      </trkpt>
      <trkpt lat="49.45345" lon="3.5423">
        <ele>168.37</ele>
        <time>2021-07-27T13:56:52Z</time>
      </trkpt>
      <trkpt lat="49.45359" lon="3.54233">
        <ele>167.89</ele>
        <time>2021-07-27T13:56:53Z</time>
      </trkpt>
      <trkpt lat="49.45373" lon="3.54231">
        <ele>166.93</ele>
        <time>2021-07-27T13:56:54Z</time>
      </trkpt>
      <trkpt lat="49.45387" lon="3.54225">
        <ele>166.45</ele>
        <time>2021-07-27T13:56:55Z</time>
      </trkpt>
      <trkpt lat="49.45399" lon="3.54218">
        <ele>166.93</ele>
        <time>2021-07-27T13:56:56Z</time>
      </trkpt>
      <trkpt lat="49.45409" lon="3.54206">
        <ele>165.96</ele>
        <time>2021-07-27T13:56:57Z</time>
      </trkpt>
      <trkpt lat="49.4542" lon="3.54192">
        <ele>165.96</ele>
        <time>2021-07-27T13:56:58Z</time>
      </trkpt>
      <trkpt lat="49.45429" lon="3.54177">
        <ele>165</ele>
        <time>2021-07-27T13:56:59Z</time>
      </trkpt>
      <trkpt lat="49.45435" lon="3.54159">
        <ele>164.52</ele>
        <time>2021-07-27T13:57:00Z</time>
      </trkpt>
      <trkpt lat="49.45442" lon="3.54141">
        <ele>162.6</ele>
        <time>2021-07-27T13:57:01Z</time>
      </trkpt>
      <trkpt lat="49.45449" lon="3.54122">
        <ele>160.2</ele>
        <time>2021-07-27T13:57:02Z</time>
      </trkpt>
      <trkpt lat="49.45457" lon="3.54102">
        <ele>159.24</ele>
        <time>2021-07-27T13:57:03Z</time>
      </trkpt>
      <trkpt lat="49.45466" lon="3.54084">
        <ele>154.43</ele>
        <time>2021-07-27T13:57:04Z</time>
      </trkpt>
      <trkpt lat="49.45479" lon="3.54067">
        <ele>151.54</ele>
        <time>2021-07-27T13:57:05Z</time>
      </trkpt>
      <trkpt lat="49.45493" lon="3.54052">
        <ele>149.14</ele>
        <time>2021-07-27T13:57:06Z</time>
      </trkpt>
      <trkpt lat="49.45574" lon="3.53967">
        <ele>143.37</ele>
        <time>2021-07-27T13:57:12Z</time>
      </trkpt>
      <trkpt lat="49.45586" lon="3.53959">
        <ele>142.41</ele>
        <time>2021-07-27T13:57:13Z</time>
      </trkpt>
      <trkpt lat="49.45599" lon="3.5395">
        <ele>142.41</ele>
        <time>2021-07-27T13:57:14Z</time>
      </trkpt>
      <trkpt lat="49.4561" lon="3.53948">
        <ele>142.41</ele>
        <time>2021-07-27T13:57:15Z</time>
      </trkpt>
      <trkpt lat="49.45624" lon="3.53947">
        <ele>142.89</ele>
        <time>2021-07-27T13:57:16Z</time>
      </trkpt>
      <trkpt lat="49.45636" lon="3.53948">
        <ele>144.34</ele>
        <time>2021-07-27T13:57:17Z</time>
      </trkpt>
      <trkpt lat="49.45651" lon="3.53957">
        <ele>144.34</ele>
        <time>2021-07-27T13:57:18Z</time>
      </trkpt>
      <trkpt lat="49.45665" lon="3.53967">
        <ele>144.34</ele>
        <time>2021-07-27T13:57:19Z</time>
      </trkpt>
      <trkpt lat="49.45679" lon="3.53978">
        <ele>142.89</ele>
        <time>2021-07-27T13:57:20Z</time>
      </trkpt>
      <trkpt lat="49.45797" lon="3.54065">
        <ele>137.61</ele>
        <time>2021-07-27T13:57:28Z</time>
      </trkpt>
      <trkpt lat="49.45819" lon="3.54081">
        <ele>136.16</ele>
        <time>2021-07-27T13:57:30Z</time>
      </trkpt>
      <trkpt lat="49.4583" lon="3.54087">
        <ele>134.72</ele>
        <time>2021-07-27T13:57:31Z</time>
      </trkpt>
      <trkpt lat="49.4584" lon="3.5409">
        <ele>133.76</ele>
        <time>2021-07-27T13:57:32Z</time>
      </trkpt>
      <trkpt lat="49.4585" lon="3.54087">
        <ele>131.84</ele>
        <time>2021-07-27T13:57:33Z</time>
      </trkpt>
      <trkpt lat="49.45861" lon="3.54084">
        <ele>130.88</ele>
        <time>2021-07-27T13:57:34Z</time>
      </trkpt>
      <trkpt lat="49.45878" lon="3.54065">
        <ele>130.88</ele>
        <time>2021-07-27T13:57:35Z</time>
      </trkpt>
      <trkpt lat="49.45878" lon="3.54065">
        <ele>130.88</ele>
        <time>2021-07-27T13:57:36Z</time>
      </trkpt>
      <trkpt lat="49.45885" lon="3.54045">
        <ele>131.36</ele>
        <time>2021-07-27T13:57:37Z</time>
      </trkpt>
      <trkpt lat="49.45891" lon="3.54026">
        <ele>130.4</ele>
        <time>2021-07-27T13:57:38Z</time>
      </trkpt>
      <trkpt lat="49.45893" lon="3.54022">
        <ele>128.47</ele>
        <time>2021-07-27T13:57:40Z</time>
      </trkpt>
      <trkpt lat="49.45893" lon="3.54022">
        <ele>127.51</ele>
        <time>2021-07-27T13:57:41Z</time>
      </trkpt>
      <trkpt lat="49.45889" lon="3.53976">
        <ele>126.55</ele>
        <time>2021-07-27T13:57:42Z</time>
      </trkpt>
      <trkpt lat="49.45888" lon="3.53958">
        <ele>125.59</ele>
        <time>2021-07-27T13:57:43Z</time>
      </trkpt>
      <trkpt lat="49.45886" lon="3.53939">
        <ele>124.63</ele>
        <time>2021-07-27T13:57:44Z</time>
      </trkpt>
      <trkpt lat="49.45884" lon="3.5392">
        <ele>123.67</ele>
        <time>2021-07-27T13:57:45Z</time>
      </trkpt>
      <trkpt lat="49.45885" lon="3.53898">
        <ele>122.71</ele>
        <time>2021-07-27T13:57:46Z</time>
      </trkpt>
      <trkpt lat="49.45889" lon="3.53881">
        <ele>122.22</ele>
        <time>2021-07-27T13:57:47Z</time>
      </trkpt>
      <trkpt lat="49.45893" lon="3.53871">
        <ele>122.22</ele>
        <time>2021-07-27T13:57:48Z</time>
      </trkpt>
      <trkpt lat="49.45897" lon="3.53863">
        <ele>121.26</ele>
        <time>2021-07-27T13:57:49Z</time>
      </trkpt>
      <trkpt lat="49.45905" lon="3.53858">
        <ele>121.74</ele>
        <time>2021-07-27T13:57:50Z</time>
      </trkpt>
      <trkpt lat="49.45925" lon="3.53854">
        <ele>122.71</ele>
        <time>2021-07-27T13:57:51Z</time>
      </trkpt>
      <trkpt lat="49.45925" lon="3.53854">
        <ele>123.19</ele>
        <time>2021-07-27T13:57:52Z</time>
      </trkpt>
      <trkpt lat="49.45938" lon="3.53859">
        <ele>122.71</ele>
        <time>2021-07-27T13:57:53Z</time>
      </trkpt>
      <trkpt lat="49.46089" lon="3.53956">
        <ele>110.21</ele>
        <time>2021-07-27T13:58:04Z</time>
      </trkpt>
      <trkpt lat="49.46103" lon="3.53966">
        <ele>110.21</ele>
        <time>2021-07-27T13:58:05Z</time>
      </trkpt>
      <trkpt lat="49.46115" lon="3.53981">
        <ele>109.73</ele>
        <time>2021-07-27T13:58:06Z</time>
      </trkpt>
      <trkpt lat="49.46139" lon="3.54016">
        <ele>108.77</ele>
        <time>2021-07-27T13:58:07Z</time>
      </trkpt>
      <trkpt lat="49.46148" lon="3.54036">
        <ele>108.29</ele>
        <time>2021-07-27T13:58:08Z</time>
      </trkpt>
      <trkpt lat="49.46148" lon="3.54036">
        <ele>107.32</ele>
        <time>2021-07-27T13:58:09Z</time>
      </trkpt>
      <trkpt lat="49.46232" lon="3.54232">
        <ele>98.19</ele>
        <time>2021-07-27T13:58:21Z</time>
      </trkpt>
      <trkpt lat="49.46296" lon="3.54355">
        <ele>93.87</ele>
        <time>2021-07-27T13:58:30Z</time>
      </trkpt>
      <trkpt lat="49.46304" lon="3.54365">
        <ele>92.9</ele>
        <time>2021-07-27T13:58:31Z</time>
      </trkpt>
      <trkpt lat="49.46312" lon="3.54374">
        <ele>92.9</ele>
        <time>2021-07-27T13:58:32Z</time>
      </trkpt>
      <trkpt lat="49.46325" lon="3.54391">
        <ele>91.46</ele>
        <time>2021-07-27T13:58:34Z</time>
      </trkpt>
      <trkpt lat="49.46333" lon="3.544">
        <ele>90.5</ele>
        <time>2021-07-27T13:58:35Z</time>
      </trkpt>
      <trkpt lat="49.46404" lon="3.54487">
        <ele>86.66</ele>
        <time>2021-07-27T13:58:46Z</time>
      </trkpt>
      <trkpt lat="49.46469" lon="3.54561">
        <ele>84.25</ele>
        <time>2021-07-27T13:58:55Z</time>
      </trkpt>
      <trkpt lat="49.46538" lon="3.54686">
        <ele>80.89</ele>
        <time>2021-07-27T13:59:10Z</time>
      </trkpt>
      <trkpt lat="49.46653" lon="3.54849">
        <ele>72.24</ele>
        <time>2021-07-27T13:59:26Z</time>
      </trkpt>
      <trkpt lat="49.46776" lon="3.54991">
        <ele>65.51</ele>
        <time>2021-07-27T13:59:41Z</time>
      </trkpt>
      <trkpt lat="49.468" lon="3.55009">
        <ele>66.47</ele>
        <time>2021-07-27T13:59:49Z</time>
      </trkpt>
      <trkpt lat="49.46833" lon="3.55019">
        <ele>67.43</ele>
        <time>2021-07-27T13:59:56Z</time>
      </trkpt>
      <trkpt lat="49.46884" lon="3.55007">
        <ele>66.95</ele>
        <time>2021-07-27T14:00:06Z</time>
      </trkpt>
      <trkpt lat="49.46905" lon="3.55002">
        <ele>67.43</ele>
        <time>2021-07-27T14:00:09Z</time>
      </trkpt>
      <trkpt lat="49.46919" lon="3.54998">
        <ele>67.43</ele>
        <time>2021-07-27T14:00:10Z</time>
      </trkpt>
      <trkpt lat="49.46919" lon="3.54998">
        <ele>67.43</ele>
        <time>2021-07-27T14:00:11Z</time>
      </trkpt>
      <trkpt lat="49.46926" lon="3.55002">
        <ele>67.43</ele>
        <time>2021-07-27T14:00:12Z</time>
      </trkpt>
      <trkpt lat="49.46933" lon="3.55007">
        <ele>67.43</ele>
        <time>2021-07-27T14:00:13Z</time>
      </trkpt>
      <trkpt lat="49.4694" lon="3.55012">
        <ele>67.43</ele>
        <time>2021-07-27T14:00:14Z</time>
      </trkpt>
      <trkpt lat="49.46954" lon="3.55025">
        <ele>67.91</ele>
        <time>2021-07-27T14:00:15Z</time>
      </trkpt>
      <trkpt lat="49.46954" lon="3.55025">
        <ele>67.43</ele>
        <time>2021-07-27T14:00:16Z</time>
      </trkpt>
      <trkpt lat="49.4696" lon="3.55035">
        <ele>67.43</ele>
        <time>2021-07-27T14:00:17Z</time>
      </trkpt>
      <trkpt lat="49.46965" lon="3.55045">
        <ele>67.43</ele>
        <time>2021-07-27T14:00:18Z</time>
      </trkpt>
      <trkpt lat="49.4699" lon="3.55094">
        <ele>65.99</ele>
        <time>2021-07-27T14:00:23Z</time>
      </trkpt>
      <trkpt lat="49.46993" lon="3.55106">
        <ele>65.51</ele>
        <time>2021-07-27T14:00:24Z</time>
      </trkpt>
      <trkpt lat="49.47012" lon="3.55165">
        <ele>64.07</ele>
        <time>2021-07-27T14:00:29Z</time>
      </trkpt>
      <trkpt lat="49.47016" lon="3.55175">
        <ele>63.58</ele>
        <time>2021-07-27T14:00:30Z</time>
      </trkpt>
      <trkpt lat="49.47019" lon="3.55186">
        <ele>63.58</ele>
        <time>2021-07-27T14:00:31Z</time>
      </trkpt>
      <trkpt lat="49.47024" lon="3.55194">
        <ele>63.58</ele>
        <time>2021-07-27T14:00:32Z</time>
      </trkpt>
      <trkpt lat="49.4703" lon="3.55201">
        <ele>63.1</ele>
        <time>2021-07-27T14:00:33Z</time>
      </trkpt>
      <trkpt lat="49.47036" lon="3.55209">
        <ele>62.62</ele>
        <time>2021-07-27T14:00:34Z</time>
      </trkpt>
      <trkpt lat="49.47042" lon="3.55215">
        <ele>62.62</ele>
        <time>2021-07-27T14:00:35Z</time>
      </trkpt>
      <trkpt lat="49.47048" lon="3.55219">
        <ele>62.14</ele>
        <time>2021-07-27T14:00:36Z</time>
      </trkpt>
      <trkpt lat="49.47067" lon="3.5523">
        <ele>61.66</ele>
        <time>2021-07-27T14:00:39Z</time>
      </trkpt>
      <trkpt lat="49.47072" lon="3.55233">
        <ele>61.66</ele>
        <time>2021-07-27T14:00:40Z</time>
      </trkpt>
      <trkpt lat="49.47075" lon="3.55235">
        <ele>61.66</ele>
        <time>2021-07-27T14:00:41Z</time>
      </trkpt>
      <trkpt lat="49.47079" lon="3.55237">
        <ele>61.66</ele>
        <time>2021-07-27T14:00:42Z</time>
      </trkpt>
      <trkpt lat="49.47083" lon="3.5524">
        <ele>61.66</ele>
        <time>2021-07-27T14:00:43Z</time>
      </trkpt>
      <trkpt lat="49.47153" lon="3.55279">
        <ele>62.14</ele>
        <time>2021-07-27T14:00:52Z</time>
      </trkpt>
      <trkpt lat="49.4724" lon="3.55318">
        <ele>64.55</ele>
        <time>2021-07-27T14:01:01Z</time>
      </trkpt>
      <trkpt lat="49.47244" lon="3.5532">
        <ele>64.07</ele>
        <time>2021-07-27T14:01:02Z</time>
      </trkpt>
      <trkpt lat="49.47247" lon="3.55321">
        <ele>64.07</ele>
        <time>2021-07-27T14:01:03Z</time>
      </trkpt>
      <trkpt lat="49.4725" lon="3.55322">
        <ele>64.07</ele>
        <time>2021-07-27T14:01:04Z</time>
      </trkpt>
      <trkpt lat="49.47251" lon="3.55323">
        <ele>64.07</ele>
        <time>2021-07-27T14:01:05Z</time>
      </trkpt>
      <trkpt lat="49.47252" lon="3.55324">
        <ele>63.58</ele>
        <time>2021-07-27T14:01:23Z</time>
      </trkpt>
      <trkpt lat="49.47254" lon="3.55324">
        <ele>63.58</ele>
        <time>2021-07-27T14:01:36Z</time>
      </trkpt>
      <trkpt lat="49.47254" lon="3.55324">
        <ele>63.58</ele>
        <time>2021-07-27T14:01:37Z</time>
      </trkpt>
      <trkpt lat="49.47256" lon="3.55325">
        <ele>63.58</ele>
        <time>2021-07-27T14:01:38Z</time>
      </trkpt>
      <trkpt lat="49.47259" lon="3.55327">
        <ele>63.58</ele>
        <time>2021-07-27T14:01:39Z</time>
      </trkpt>
      <trkpt lat="49.47263" lon="3.55328">
        <ele>63.58</ele>
        <time>2021-07-27T14:01:40Z</time>
      </trkpt>
      <trkpt lat="49.47268" lon="3.5533">
        <ele>63.58</ele>
        <time>2021-07-27T14:01:41Z</time>
      </trkpt>
      <trkpt lat="49.47273" lon="3.55332">
        <ele>63.58</ele>
        <time>2021-07-27T14:01:42Z</time>
      </trkpt>
      <trkpt lat="49.47347" lon="3.55363">
        <ele>64.07</ele>
        <time>2021-07-27T14:01:51Z</time>
      </trkpt>
      <trkpt lat="49.47386" lon="3.55379">
        <ele>64.55</ele>
        <time>2021-07-27T14:01:56Z</time>
      </trkpt>
      <trkpt lat="49.47392" lon="3.55382">
        <ele>64.55</ele>
        <time>2021-07-27T14:01:57Z</time>
      </trkpt>
      <trkpt lat="49.47398" lon="3.5539">
        <ele>64.55</ele>
        <time>2021-07-27T14:01:58Z</time>
      </trkpt>
      <trkpt lat="49.474" lon="3.55398">
        <ele>64.55</ele>
        <time>2021-07-27T14:01:59Z</time>
      </trkpt>
      <trkpt lat="49.47406" lon="3.55404">
        <ele>64.55</ele>
        <time>2021-07-27T14:02:00Z</time>
      </trkpt>
      <trkpt lat="49.47411" lon="3.55405">
        <ele>64.55</ele>
        <time>2021-07-27T14:02:01Z</time>
      </trkpt>
      <trkpt lat="49.47414" lon="3.55403">
        <ele>64.55</ele>
        <time>2021-07-27T14:02:02Z</time>
      </trkpt>
      <trkpt lat="49.47418" lon="3.55399">
        <ele>64.07</ele>
        <time>2021-07-27T14:02:03Z</time>
      </trkpt>
      <trkpt lat="49.47423" lon="3.55388">
        <ele>63.58</ele>
        <time>2021-07-27T14:02:04Z</time>
      </trkpt>
      <trkpt lat="49.47423" lon="3.55388">
        <ele>63.58</ele>
        <time>2021-07-27T14:02:05Z</time>
      </trkpt>
      <trkpt lat="49.47421" lon="3.55381">
        <ele>63.58</ele>
        <time>2021-07-27T14:02:06Z</time>
      </trkpt>
      <trkpt lat="49.47418" lon="3.55376">
        <ele>63.1</ele>
        <time>2021-07-27T14:02:07Z</time>
      </trkpt>
      <trkpt lat="49.47413" lon="3.55371">
        <ele>62.62</ele>
        <time>2021-07-27T14:02:08Z</time>
      </trkpt>
      <trkpt lat="49.47409" lon="3.55367">
        <ele>62.14</ele>
        <time>2021-07-27T14:02:09Z</time>
      </trkpt>
      <trkpt lat="49.47402" lon="3.55369">
        <ele>62.62</ele>
        <time>2021-07-27T14:02:10Z</time>
      </trkpt>
      <trkpt lat="49.47401" lon="3.55369">
        <ele>62.62</ele>
        <time>2021-07-27T14:02:11Z</time>
      </trkpt>
      <trkpt lat="49.47385" lon="3.55379">
        <ele>62.62</ele>
        <time>2021-07-27T14:02:12Z</time>
      </trkpt>
      <trkpt lat="49.47376" lon="3.55376">
        <ele>63.1</ele>
        <time>2021-07-27T14:02:13Z</time>
      </trkpt>
      <trkpt lat="49.47365" lon="3.55371">
        <ele>63.1</ele>
        <time>2021-07-27T14:02:14Z</time>
      </trkpt>
      <trkpt lat="49.47243" lon="3.5532">
        <ele>63.1</ele>
        <time>2021-07-27T14:02:24Z</time>
      </trkpt>
      <trkpt lat="49.47077" lon="3.55236">
        <ele>59.74</ele>
        <time>2021-07-27T14:02:36Z</time>
      </trkpt>
      <trkpt lat="49.47042" lon="3.55216">
        <ele>62.14</ele>
        <time>2021-07-27T14:02:39Z</time>
      </trkpt>
      <trkpt lat="49.47034" lon="3.55206">
        <ele>61.66</ele>
        <time>2021-07-27T14:02:40Z</time>
      </trkpt>
      <trkpt lat="49.47025" lon="3.55195">
        <ele>61.18</ele>
        <time>2021-07-27T14:02:41Z</time>
      </trkpt>
      <trkpt lat="49.47018" lon="3.55182">
        <ele>62.14</ele>
        <time>2021-07-27T14:02:42Z</time>
      </trkpt>
      <trkpt lat="49.47013" lon="3.55168">
        <ele>62.62</ele>
        <time>2021-07-27T14:02:43Z</time>
      </trkpt>
      <trkpt lat="49.47009" lon="3.55155">
        <ele>63.1</ele>
        <time>2021-07-27T14:02:44Z</time>
      </trkpt>
      <trkpt lat="49.47004" lon="3.5514">
        <ele>63.58</ele>
        <time>2021-07-27T14:02:45Z</time>
      </trkpt>
      <trkpt lat="49.46995" lon="3.55111">
        <ele>64.07</ele>
        <time>2021-07-27T14:02:47Z</time>
      </trkpt>
      <trkpt lat="49.46991" lon="3.55099">
        <ele>64.55</ele>
        <time>2021-07-27T14:02:48Z</time>
      </trkpt>
      <trkpt lat="49.46963" lon="3.5504">
        <ele>65.03</ele>
        <time>2021-07-27T14:02:53Z</time>
      </trkpt>
      <trkpt lat="49.46957" lon="3.55029">
        <ele>65.51</ele>
        <time>2021-07-27T14:02:54Z</time>
      </trkpt>
      <trkpt lat="49.4695" lon="3.55019">
        <ele>66.47</ele>
        <time>2021-07-27T14:02:55Z</time>
      </trkpt>
      <trkpt lat="49.46941" lon="3.55013">
        <ele>67.91</ele>
        <time>2021-07-27T14:02:56Z</time>
      </trkpt>
      <trkpt lat="49.46931" lon="3.55006">
        <ele>68.39</ele>
        <time>2021-07-27T14:02:57Z</time>
      </trkpt>
      <trkpt lat="49.46921" lon="3.54999">
        <ele>68.39</ele>
        <time>2021-07-27T14:02:58Z</time>
      </trkpt>
      <trkpt lat="49.46913" lon="3.55">
        <ele>69.83</ele>
        <time>2021-07-27T14:02:59Z</time>
      </trkpt>
      <trkpt lat="49.46903" lon="3.55002">
        <ele>69.83</ele>
        <time>2021-07-27T14:03:00Z</time>
      </trkpt>
      <trkpt lat="49.46894" lon="3.55005">
        <ele>70.79</ele>
        <time>2021-07-27T14:03:01Z</time>
      </trkpt>
      <trkpt lat="49.46849" lon="3.55016">
        <ele>70.79</ele>
        <time>2021-07-27T14:03:05Z</time>
      </trkpt>
      <trkpt lat="49.46828" lon="3.55019">
        <ele>69.83</ele>
        <time>2021-07-27T14:03:06Z</time>
      </trkpt>
      <trkpt lat="49.46828" lon="3.55019">
        <ele>69.35</ele>
        <time>2021-07-27T14:03:07Z</time>
      </trkpt>
      <trkpt lat="49.46819" lon="3.55018">
        <ele>69.35</ele>
        <time>2021-07-27T14:03:08Z</time>
      </trkpt>
      <trkpt lat="49.4681" lon="3.55014">
        <ele>69.35</ele>
        <time>2021-07-27T14:03:09Z</time>
      </trkpt>
      <trkpt lat="49.468" lon="3.5501">
        <ele>68.87</ele>
        <time>2021-07-27T14:03:10Z</time>
      </trkpt>
      <trkpt lat="49.46792" lon="3.55006">
        <ele>68.87</ele>
        <time>2021-07-27T14:03:11Z</time>
      </trkpt>
      <trkpt lat="49.46782" lon="3.54999">
        <ele>69.35</ele>
        <time>2021-07-27T14:03:12Z</time>
      </trkpt>
      <trkpt lat="49.46775" lon="3.5499">
        <ele>70.31</ele>
        <time>2021-07-27T14:03:13Z</time>
      </trkpt>
      <trkpt lat="49.46767" lon="3.54981">
        <ele>71.27</ele>
        <time>2021-07-27T14:03:14Z</time>
      </trkpt>
      <trkpt lat="49.46618" lon="3.54805">
        <ele>78.48</ele>
        <time>2021-07-27T14:03:30Z</time>
      </trkpt>
      <trkpt lat="49.46514" lon="3.54642">
        <ele>83.77</ele>
        <time>2021-07-27T14:03:42Z</time>
      </trkpt>
      <trkpt lat="49.46487" lon="3.54593">
        <ele>88.1</ele>
        <time>2021-07-27T14:03:48Z</time>
      </trkpt>
      <trkpt lat="49.46435" lon="3.54517">
        <ele>89.06</ele>
        <time>2021-07-27T14:03:58Z</time>
      </trkpt>
      <trkpt lat="49.46362" lon="3.54439">
        <ele>91.94</ele>
        <time>2021-07-27T14:04:08Z</time>
      </trkpt>
      <trkpt lat="49.46332" lon="3.54399">
        <ele>93.39</ele>
        <time>2021-07-27T14:04:11Z</time>
      </trkpt>
      <trkpt lat="49.46332" lon="3.54399">
        <ele>93.39</ele>
        <time>2021-07-27T14:04:12Z</time>
      </trkpt>
      <trkpt lat="49.46309" lon="3.54371">
        <ele>94.83</ele>
        <time>2021-07-27T14:04:14Z</time>
      </trkpt>
      <trkpt lat="49.46309" lon="3.54371">
        <ele>95.79</ele>
        <time>2021-07-27T14:04:15Z</time>
      </trkpt>
      <trkpt lat="49.463" lon="3.5436">
        <ele>96.75</ele>
        <time>2021-07-27T14:04:16Z</time>
      </trkpt>
      <trkpt lat="49.46206" lon="3.54168">
        <ele>109.25</ele>
        <time>2021-07-27T14:04:30Z</time>
      </trkpt>
      <trkpt lat="49.46135" lon="3.54006">
        <ele>115.98</ele>
        <time>2021-07-27T14:04:41Z</time>
      </trkpt>
      <trkpt lat="49.46126" lon="3.53994">
        <ele>116.94</ele>
        <time>2021-07-27T14:04:42Z</time>
      </trkpt>
      <trkpt lat="49.46117" lon="3.53983">
        <ele>116.94</ele>
        <time>2021-07-27T14:04:43Z</time>
      </trkpt>
      <trkpt lat="49.46107" lon="3.53971">
        <ele>117.42</ele>
        <time>2021-07-27T14:04:44Z</time>
      </trkpt>
      <trkpt lat="49.46096" lon="3.53961">
        <ele>118.86</ele>
        <time>2021-07-27T14:04:45Z</time>
      </trkpt>
      <trkpt lat="49.46084" lon="3.53953">
        <ele>119.34</ele>
        <time>2021-07-27T14:04:46Z</time>
      </trkpt>
      <trkpt lat="49.45955" lon="3.53867">
        <ele>129.43</ele>
        <time>2021-07-27T14:04:57Z</time>
      </trkpt>
      <trkpt lat="49.45946" lon="3.53862">
        <ele>129.92</ele>
        <time>2021-07-27T14:04:58Z</time>
      </trkpt>
      <trkpt lat="49.45936" lon="3.53858">
        <ele>129.43</ele>
        <time>2021-07-27T14:04:59Z</time>
      </trkpt>
      <trkpt lat="49.45927" lon="3.53854">
        <ele>129.92</ele>
        <time>2021-07-27T14:05:00Z</time>
      </trkpt>
      <trkpt lat="49.45918" lon="3.53851">
        <ele>131.36</ele>
        <time>2021-07-27T14:05:01Z</time>
      </trkpt>
      <trkpt lat="49.45912" lon="3.53853">
        <ele>129.92</ele>
        <time>2021-07-27T14:05:02Z</time>
      </trkpt>
      <trkpt lat="49.459" lon="3.53861">
        <ele>129.92</ele>
        <time>2021-07-27T14:05:03Z</time>
      </trkpt>
      <trkpt lat="49.45892" lon="3.53875">
        <ele>129.43</ele>
        <time>2021-07-27T14:05:04Z</time>
      </trkpt>
      <trkpt lat="49.45886" lon="3.53886">
        <ele>130.4</ele>
        <time>2021-07-27T14:05:05Z</time>
      </trkpt>
      <trkpt lat="49.45885" lon="3.53908">
        <ele>131.36</ele>
        <time>2021-07-27T14:05:06Z</time>
      </trkpt>
      <trkpt lat="49.45885" lon="3.53926">
        <ele>132.32</ele>
        <time>2021-07-27T14:05:07Z</time>
      </trkpt>
      <trkpt lat="49.45887" lon="3.53946">
        <ele>134.24</ele>
        <time>2021-07-27T14:05:08Z</time>
      </trkpt>
      <trkpt lat="49.45893" lon="3.54022">
        <ele>134.72</ele>
        <time>2021-07-27T14:05:12Z</time>
      </trkpt>
      <trkpt lat="49.45887" lon="3.54038">
        <ele>136.16</ele>
        <time>2021-07-27T14:05:13Z</time>
      </trkpt>
      <trkpt lat="49.45882" lon="3.54052">
        <ele>136.64</ele>
        <time>2021-07-27T14:05:14Z</time>
      </trkpt>
      <trkpt lat="49.45878" lon="3.54065">
        <ele>136.64</ele>
        <time>2021-07-27T14:05:15Z</time>
      </trkpt>
      <trkpt lat="49.45871" lon="3.54074">
        <ele>137.13</ele>
        <time>2021-07-27T14:05:16Z</time>
      </trkpt>
      <trkpt lat="49.45863" lon="3.54084">
        <ele>137.61</ele>
        <time>2021-07-27T14:05:17Z</time>
      </trkpt>
      <trkpt lat="49.45853" lon="3.54086">
        <ele>138.57</ele>
        <time>2021-07-27T14:05:18Z</time>
      </trkpt>
      <trkpt lat="49.45841" lon="3.54089">
        <ele>139.05</ele>
        <time>2021-07-27T14:05:19Z</time>
      </trkpt>
      <trkpt lat="49.45833" lon="3.54088">
        <ele>140.01</ele>
        <time>2021-07-27T14:05:20Z</time>
      </trkpt>
      <trkpt lat="49.4582" lon="3.54082">
        <ele>140.49</ele>
        <time>2021-07-27T14:05:21Z</time>
      </trkpt>
      <trkpt lat="49.45808" lon="3.54073">
        <ele>141.45</ele>
        <time>2021-07-27T14:05:22Z</time>
      </trkpt>
      <trkpt lat="49.45795" lon="3.54064">
        <ele>141.93</ele>
        <time>2021-07-27T14:05:23Z</time>
      </trkpt>
      <trkpt lat="49.45657" lon="3.53962">
        <ele>147.22</ele>
        <time>2021-07-27T14:05:33Z</time>
      </trkpt>
      <trkpt lat="49.45621" lon="3.53947">
        <ele>149.14</ele>
        <time>2021-07-27T14:05:35Z</time>
      </trkpt>
      <trkpt lat="49.45621" lon="3.53947">
        <ele>152.03</ele>
        <time>2021-07-27T14:05:36Z</time>
      </trkpt>
      <trkpt lat="49.45608" lon="3.53948">
        <ele>154.91</ele>
        <time>2021-07-27T14:05:37Z</time>
      </trkpt>
      <trkpt lat="49.45597" lon="3.53951">
        <ele>156.35</ele>
        <time>2021-07-27T14:05:38Z</time>
      </trkpt>
      <trkpt lat="49.45586" lon="3.53959">
        <ele>156.83</ele>
        <time>2021-07-27T14:05:39Z</time>
      </trkpt>
      <trkpt lat="49.45574" lon="3.53967">
        <ele>155.87</ele>
        <time>2021-07-27T14:05:40Z</time>
      </trkpt>
      <trkpt lat="49.45458" lon="3.541">
        <ele>156.35</ele>
        <time>2021-07-27T14:05:48Z</time>
      </trkpt>
      <trkpt lat="49.45458" lon="3.541">
        <ele>156.83</ele>
        <time>2021-07-27T14:05:49Z</time>
      </trkpt>
      <trkpt lat="49.45449" lon="3.54122">
        <ele>157.31</ele>
        <time>2021-07-27T14:05:50Z</time>
      </trkpt>
      <trkpt lat="49.45442" lon="3.54142">
        <ele>157.79</ele>
        <time>2021-07-27T14:05:51Z</time>
      </trkpt>
      <trkpt lat="49.45434" lon="3.54162">
        <ele>159.24</ele>
        <time>2021-07-27T14:05:52Z</time>
      </trkpt>
      <trkpt lat="49.45428" lon="3.5418">
        <ele>160.68</ele>
        <time>2021-07-27T14:05:53Z</time>
      </trkpt>
      <trkpt lat="49.45419" lon="3.54194">
        <ele>162.12</ele>
        <time>2021-07-27T14:05:54Z</time>
      </trkpt>
      <trkpt lat="49.45409" lon="3.54206">
        <ele>163.56</ele>
        <time>2021-07-27T14:05:55Z</time>
      </trkpt>
      <trkpt lat="49.454" lon="3.54217">
        <ele>163.56</ele>
        <time>2021-07-27T14:05:56Z</time>
      </trkpt>
      <trkpt lat="49.45391" lon="3.54223">
        <ele>165</ele>
        <time>2021-07-27T14:05:57Z</time>
      </trkpt>
      <trkpt lat="49.45379" lon="3.54228">
        <ele>166.45</ele>
        <time>2021-07-27T14:05:58Z</time>
      </trkpt>
      <trkpt lat="49.45365" lon="3.54234">
        <ele>166.93</ele>
        <time>2021-07-27T14:05:59Z</time>
      </trkpt>
      <trkpt lat="49.45354" lon="3.54233">
        <ele>166.93</ele>
        <time>2021-07-27T14:06:00Z</time>
      </trkpt>
      <trkpt lat="49.45342" lon="3.54228">
        <ele>166.93</ele>
        <time>2021-07-27T14:06:01Z</time>
      </trkpt>
      <trkpt lat="49.45328" lon="3.54219">
        <ele>166.93</ele>
        <time>2021-07-27T14:06:02Z</time>
      </trkpt>
      <trkpt lat="49.45315" lon="3.5421">
        <ele>166.93</ele>
        <time>2021-07-27T14:06:03Z</time>
      </trkpt>
      <trkpt lat="49.45302" lon="3.54201">
        <ele>166.93</ele>
        <time>2021-07-27T14:06:04Z</time>
      </trkpt>
      <trkpt lat="49.45137" lon="3.54053">
        <ele>174.62</ele>
        <time>2021-07-27T14:06:19Z</time>
      </trkpt>
      <trkpt lat="49.45071" lon="3.53996">
        <ele>175.1</ele>
        <time>2021-07-27T14:06:28Z</time>
      </trkpt>
      <trkpt lat="49.4506" lon="3.53977">
        <ele>175.1</ele>
        <time>2021-07-27T14:06:33Z</time>
      </trkpt>
      <trkpt lat="49.45061" lon="3.53972">
        <ele>175.1</ele>
        <time>2021-07-27T14:06:34Z</time>
      </trkpt>
      <trkpt lat="49.45062" lon="3.53965">
        <ele>175.58</ele>
        <time>2021-07-27T14:06:35Z</time>
      </trkpt>
      <trkpt lat="49.45093" lon="3.53872">
        <ele>177.5</ele>
        <time>2021-07-27T14:06:44Z</time>
      </trkpt>
      <trkpt lat="49.4518" lon="3.53667">
        <ele>181.35</ele>
        <time>2021-07-27T14:06:57Z</time>
      </trkpt>
      <trkpt lat="49.45307" lon="3.53328">
        <ele>184.71</ele>
        <time>2021-07-27T14:07:15Z</time>
      </trkpt>
      <trkpt lat="49.45424" lon="3.52991">
        <ele>182.79</ele>
        <time>2021-07-27T14:07:29Z</time>
      </trkpt>
      <trkpt lat="49.45617" lon="3.52435">
        <ele>180.38</ele>
        <time>2021-07-27T14:07:50Z</time>
      </trkpt>
      <trkpt lat="49.45664" lon="3.523">
        <ele>178.46</ele>
        <time>2021-07-27T14:07:57Z</time>
      </trkpt>
      <trkpt lat="49.45678" lon="3.5226">
        <ele>178.46</ele>
        <time>2021-07-27T14:08:01Z</time>
      </trkpt>
      <trkpt lat="49.4568" lon="3.52254">
        <ele>178.46</ele>
        <time>2021-07-27T14:08:02Z</time>
      </trkpt>
      <trkpt lat="49.45681" lon="3.5225">
        <ele>178.46</ele>
        <time>2021-07-27T14:08:03Z</time>
      </trkpt>
      <trkpt lat="49.45682" lon="3.52248">
        <ele>178.46</ele>
        <time>2021-07-27T14:08:04Z</time>
      </trkpt>
      <trkpt lat="49.45683" lon="3.52246">
        <ele>178.94</ele>
        <time>2021-07-27T14:08:05Z</time>
      </trkpt>
      <trkpt lat="49.45683" lon="3.52245">
        <ele>178.94</ele>
        <time>2021-07-27T14:08:07Z</time>
      </trkpt>
      <trkpt lat="49.4569" lon="3.52253">
        <ele>179.42</ele>
        <time>2021-07-27T14:08:08Z</time>
      </trkpt>
      <trkpt lat="49.45692" lon="3.52255">
        <ele>179.42</ele>
        <time>2021-07-27T14:08:09Z</time>
      </trkpt>
      <trkpt lat="49.45748" lon="3.52297">
        <ele>179.9</ele>
        <time>2021-07-27T14:08:24Z</time>
      </trkpt>
      <trkpt lat="49.45755" lon="3.52303">
        <ele>179.42</ele>
        <time>2021-07-27T14:08:36Z</time>
      </trkpt>
      <trkpt lat="49.45791" lon="3.52329">
        <ele>181.35</ele>
        <time>2021-07-27T14:08:49Z</time>
      </trkpt>
      <trkpt lat="49.45836" lon="3.52357">
        <ele>183.27</ele>
        <time>2021-07-27T14:09:01Z</time>
      </trkpt>
      <trkpt lat="49.45843" lon="3.52361">
        <ele>184.23</ele>
        <time>2021-07-27T14:09:14Z</time>
      </trkpt>
      <trkpt lat="49.45863" lon="3.52374">
        <ele>185.19</ele>
        <time>2021-07-27T14:12:26Z</time>
      </trkpt>
      <trkpt lat="49.45894" lon="3.52397">
        <ele>186.15</ele>
        <time>2021-07-27T14:12:34Z</time>
      </trkpt>
      <trkpt lat="49.45898" lon="3.524">
        <ele>186.15</ele>
        <time>2021-07-27T14:12:35Z</time>
      </trkpt>
      <trkpt lat="49.45903" lon="3.52403">
        <ele>186.15</ele>
        <time>2021-07-27T14:12:36Z</time>
      </trkpt>
      <trkpt lat="49.45934" lon="3.52449">
        <ele>187.11</ele>
        <time>2021-07-27T14:12:50Z</time>
      </trkpt>
      <trkpt lat="49.45973" lon="3.52434">
        <ele>188.08</ele>
        <time>2021-07-27T14:13:04Z</time>
      </trkpt>
      <trkpt lat="49.4597" lon="3.5244">
        <ele>188.56</ele>
        <time>2021-07-27T14:19:00Z</time>
      </trkpt>
      <trkpt lat="49.45969" lon="3.52441">
        <ele>188.08</ele>
        <time>2021-07-27T14:21:01Z</time>
      </trkpt>
      <trkpt lat="49.45969" lon="3.52442">
        <ele>188.08</ele>
        <time>2021-07-27T14:22:31Z</time>
      </trkpt>
      <trkpt lat="49.45969" lon="3.52444">
        <ele>188.08</ele>
        <time>2021-07-27T14:24:17Z</time>
      </trkpt>
      <trkpt lat="49.45969" lon="3.52445">
        <ele>188.08</ele>
        <time>2021-07-27T14:26:15Z</time>
      </trkpt>
      <trkpt lat="49.45968" lon="3.52446">
        <ele>188.08</ele>
        <time>2021-07-27T14:28:32Z</time>
      </trkpt>
      <trkpt lat="49.45968" lon="3.52447">
        <ele>187.59</ele>
        <time>2021-07-27T14:30:11Z</time>
      </trkpt>
      <trkpt lat="49.45968" lon="3.52448">
        <ele>187.59</ele>
        <time>2021-07-27T14:32:15Z</time>
      </trkpt>
      <trkpt lat="49.45968" lon="3.52448">
        <ele>187.59</ele>
        <time>2021-07-27T14:34:27Z</time>
      </trkpt>
      <trkpt lat="49.45967" lon="3.52448">
        <ele>188.08</ele>
        <time>2021-07-27T14:36:38Z</time>
      </trkpt>
      <trkpt lat="49.45967" lon="3.52447">
        <ele>188.08</ele>
        <time>2021-07-27T14:38:22Z</time>
      </trkpt>
      <trkpt lat="49.45966" lon="3.52448">
        <ele>188.08</ele>
        <time>2021-07-27T14:40:45Z</time>
      </trkpt>
      <trkpt lat="49.45966" lon="3.52449">
        <ele>188.08</ele>
        <time>2021-07-27T14:44:26Z</time>
      </trkpt>
      <trkpt lat="49.45965" lon="3.52449">
        <ele>187.59</ele>
        <time>2021-07-27T14:47:21Z</time>
      </trkpt>
      <trkpt lat="49.45965" lon="3.52448">
        <ele>187.59</ele>
        <time>2021-07-27T14:49:50Z</time>
      </trkpt>
      <trkpt lat="49.45965" lon="3.52447">
        <ele>187.59</ele>
        <time>2021-07-27T14:55:54Z</time>
      </trkpt>
      <trkpt lat="49.45965" lon="3.52446">
        <ele>188.08</ele>
        <time>2021-07-27T14:59:22Z</time>
      </trkpt>
      <trkpt lat="49.45965" lon="3.52446">
        <ele>188.08</ele>
        <time>2021-07-27T15:02:47Z</time>
      </trkpt>
      <trkpt lat="49.45965" lon="3.52446">
        <ele>188.08</ele>
        <time>2021-07-27T15:04:48Z</time>
      </trkpt>
      <trkpt lat="49.45965" lon="3.52446">
        <ele>188.08</ele>
        <time>2021-07-27T15:08:05Z</time>
      </trkpt>
      <trkpt lat="49.45966" lon="3.52446">
        <ele>188.56</ele>
        <time>2021-07-27T15:11:13Z</time>
      </trkpt>
      <trkpt lat="49.45966" lon="3.52446">
        <ele>188.56</ele>
        <time>2021-07-27T15:14:30Z</time>
      </trkpt>
      <trkpt lat="49.45966" lon="3.52446">
        <ele>188.56</ele>
        <time>2021-07-27T15:15:32Z</time>
      </trkpt>
      <trkpt lat="49.45965" lon="3.52444">
        <ele>188.56</ele>
        <time>2021-07-27T15:15:39Z</time>
      </trkpt>
      <trkpt lat="49.45957" lon="3.52434">
        <ele>188.56</ele>
        <time>2021-07-27T15:15:53Z</time>
      </trkpt>
      <trkpt lat="49.45942" lon="3.52437">
        <ele>188.08</ele>
        <time>2021-07-27T15:16:11Z</time>
      </trkpt>
      <trkpt lat="49.45927" lon="3.52436">
        <ele>187.59</ele>
        <time>2021-07-27T15:17:02Z</time>
      </trkpt>
      <trkpt lat="49.45894" lon="3.52396">
        <ele>185.19</ele>
        <time>2021-07-27T15:17:15Z</time>
      </trkpt>
      <trkpt lat="49.45889" lon="3.52393">
        <ele>185.19</ele>
        <time>2021-07-27T15:17:16Z</time>
      </trkpt>
      <trkpt lat="49.45803" lon="3.52336">
        <ele>182.31</ele>
        <time>2021-07-27T15:17:33Z</time>
      </trkpt>
      <trkpt lat="49.4571" lon="3.52268">
        <ele>179.42</ele>
        <time>2021-07-27T15:17:52Z</time>
      </trkpt>
      <trkpt lat="49.45683" lon="3.52245">
        <ele>177.98</ele>
        <time>2021-07-27T15:18:05Z</time>
      </trkpt>
      <trkpt lat="49.45683" lon="3.52245">
        <ele>177.98</ele>
        <time>2021-07-27T15:18:06Z</time>
      </trkpt>
      <trkpt lat="49.45685" lon="3.5224">
        <ele>178.46</ele>
        <time>2021-07-27T15:18:07Z</time>
      </trkpt>
      <trkpt lat="49.45707" lon="3.52176">
        <ele>178.46</ele>
        <time>2021-07-27T15:18:17Z</time>
      </trkpt>
      <trkpt lat="49.45764" lon="3.52004">
        <ele>181.35</ele>
        <time>2021-07-27T15:18:31Z</time>
      </trkpt>
      <trkpt lat="49.45793" lon="3.51814">
        <ele>180.87</ele>
        <time>2021-07-27T15:18:43Z</time>
      </trkpt>
      <trkpt lat="49.458" lon="3.5158">
        <ele>180.38</ele>
        <time>2021-07-27T15:18:54Z</time>
      </trkpt>
      <trkpt lat="49.45804" lon="3.51368">
        <ele>183.75</ele>
        <time>2021-07-27T15:19:05Z</time>
      </trkpt>
      <trkpt lat="49.45811" lon="3.50991">
        <ele>184.23</ele>
        <time>2021-07-27T15:19:21Z</time>
      </trkpt>
      <trkpt lat="49.45817" lon="3.50625">
        <ele>189.04</ele>
        <time>2021-07-27T15:19:36Z</time>
      </trkpt>
      <trkpt lat="49.45833" lon="3.50136">
        <ele>188.56</ele>
        <time>2021-07-27T15:19:55Z</time>
      </trkpt>
      <trkpt lat="49.45846" lon="3.4967">
        <ele>188.08</ele>
        <time>2021-07-27T15:20:12Z</time>
      </trkpt>
      <trkpt lat="49.45807" lon="3.49522">
        <ele>185.19</ele>
        <time>2021-07-27T15:20:18Z</time>
      </trkpt>
      <trkpt lat="49.45669" lon="3.49307">
        <ele>186.63</ele>
        <time>2021-07-27T15:20:29Z</time>
      </trkpt>
      <trkpt lat="49.45607" lon="3.49209">
        <ele>183.27</ele>
        <time>2021-07-27T15:20:35Z</time>
      </trkpt>
      <trkpt lat="49.45602" lon="3.49196">
        <ele>184.23</ele>
        <time>2021-07-27T15:20:36Z</time>
      </trkpt>
      <trkpt lat="49.45598" lon="3.4918">
        <ele>184.71</ele>
        <time>2021-07-27T15:20:37Z</time>
      </trkpt>
      <trkpt lat="49.45594" lon="3.49163">
        <ele>185.19</ele>
        <time>2021-07-27T15:20:38Z</time>
      </trkpt>
      <trkpt lat="49.45591" lon="3.49147">
        <ele>185.67</ele>
        <time>2021-07-27T15:20:39Z</time>
      </trkpt>
      <trkpt lat="49.4559" lon="3.4913">
        <ele>185.67</ele>
        <time>2021-07-27T15:20:40Z</time>
      </trkpt>
      <trkpt lat="49.4559" lon="3.49112">
        <ele>185.19</ele>
        <time>2021-07-27T15:20:41Z</time>
      </trkpt>
      <trkpt lat="49.4559" lon="3.49096">
        <ele>184.23</ele>
        <time>2021-07-27T15:20:42Z</time>
      </trkpt>
      <trkpt lat="49.45596" lon="3.4905">
        <ele>182.79</ele>
        <time>2021-07-27T15:20:46Z</time>
      </trkpt>
      <trkpt lat="49.45597" lon="3.49043">
        <ele>182.79</ele>
        <time>2021-07-27T15:20:47Z</time>
      </trkpt>
      <trkpt lat="49.45607" lon="3.49022">
        <ele>183.27</ele>
        <time>2021-07-27T15:20:50Z</time>
      </trkpt>
      <trkpt lat="49.45609" lon="3.49016">
        <ele>183.75</ele>
        <time>2021-07-27T15:20:51Z</time>
      </trkpt>
      <trkpt lat="49.45608" lon="3.49004">
        <ele>184.23</ele>
        <time>2021-07-27T15:20:52Z</time>
      </trkpt>
      <trkpt lat="49.45608" lon="3.48994">
        <ele>184.71</ele>
        <time>2021-07-27T15:20:53Z</time>
      </trkpt>
      <trkpt lat="49.45605" lon="3.48988">
        <ele>184.23</ele>
        <time>2021-07-27T15:20:54Z</time>
      </trkpt>
      <trkpt lat="49.45601" lon="3.48985">
        <ele>184.23</ele>
        <time>2021-07-27T15:20:55Z</time>
      </trkpt>
      <trkpt lat="49.45596" lon="3.48981">
        <ele>183.75</ele>
        <time>2021-07-27T15:20:56Z</time>
      </trkpt>
      <trkpt lat="49.45591" lon="3.4898">
        <ele>184.23</ele>
        <time>2021-07-27T15:20:57Z</time>
      </trkpt>
      <trkpt lat="49.45584" lon="3.48981">
        <ele>183.75</ele>
        <time>2021-07-27T15:20:58Z</time>
      </trkpt>
      <trkpt lat="49.45576" lon="3.48979">
        <ele>183.75</ele>
        <time>2021-07-27T15:20:59Z</time>
      </trkpt>
      <trkpt lat="49.45568" lon="3.48977">
        <ele>183.75</ele>
        <time>2021-07-27T15:21:00Z</time>
      </trkpt>
      <trkpt lat="49.4556" lon="3.48974">
        <ele>183.27</ele>
        <time>2021-07-27T15:21:01Z</time>
      </trkpt>
      <trkpt lat="49.45551" lon="3.4897">
        <ele>183.27</ele>
        <time>2021-07-27T15:21:02Z</time>
      </trkpt>
      <trkpt lat="49.45536" lon="3.48954">
        <ele>182.79</ele>
        <time>2021-07-27T15:21:03Z</time>
      </trkpt>
      <trkpt lat="49.45503" lon="3.48914">
        <ele>180.38</ele>
        <time>2021-07-27T15:21:08Z</time>
      </trkpt>
      <trkpt lat="49.45497" lon="3.489">
        <ele>178.94</ele>
        <time>2021-07-27T15:21:09Z</time>
      </trkpt>
      <trkpt lat="49.45491" lon="3.48885">
        <ele>178.46</ele>
        <time>2021-07-27T15:21:10Z</time>
      </trkpt>
      <trkpt lat="49.45486" lon="3.48869">
        <ele>179.42</ele>
        <time>2021-07-27T15:21:11Z</time>
      </trkpt>
      <trkpt lat="49.45482" lon="3.48851">
        <ele>179.42</ele>
        <time>2021-07-27T15:21:12Z</time>
      </trkpt>
      <trkpt lat="49.45479" lon="3.4883">
        <ele>178.94</ele>
        <time>2021-07-27T15:21:13Z</time>
      </trkpt>
      <trkpt lat="49.45478" lon="3.4881">
        <ele>178.94</ele>
        <time>2021-07-27T15:21:14Z</time>
      </trkpt>
      <trkpt lat="49.45461" lon="3.48601">
        <ele>173.17</ele>
        <time>2021-07-27T15:21:23Z</time>
      </trkpt>
      <trkpt lat="49.45401" lon="3.48421">
        <ele>174.14</ele>
        <time>2021-07-27T15:21:32Z</time>
      </trkpt>
      <trkpt lat="49.45328" lon="3.48155">
        <ele>170.29</ele>
        <time>2021-07-27T15:21:43Z</time>
      </trkpt>
      <trkpt lat="49.45246" lon="3.47783">
        <ele>168.85</ele>
        <time>2021-07-27T15:21:56Z</time>
      </trkpt>
      <trkpt lat="49.45195" lon="3.47355">
        <ele>169.81</ele>
        <time>2021-07-27T15:22:10Z</time>
      </trkpt>
      <trkpt lat="49.45161" lon="3.46784">
        <ele>165</ele>
        <time>2021-07-27T15:22:28Z</time>
      </trkpt>
      <trkpt lat="49.45127" lon="3.46228">
        <ele>152.99</ele>
        <time>2021-07-27T15:22:44Z</time>
      </trkpt>
      <trkpt lat="49.45104" lon="3.45841">
        <ele>149.62</ele>
        <time>2021-07-27T15:22:55Z</time>
      </trkpt>
      <trkpt lat="49.45072" lon="3.45297">
        <ele>157.31</ele>
        <time>2021-07-27T15:23:11Z</time>
      </trkpt>
      <trkpt lat="49.45037" lon="3.4475">
        <ele>167.89</ele>
        <time>2021-07-27T15:23:28Z</time>
      </trkpt>
      <trkpt lat="49.44969" lon="3.44352">
        <ele>165.96</ele>
        <time>2021-07-27T15:23:42Z</time>
      </trkpt>
      <trkpt lat="49.44891" lon="3.4408">
        <ele>165.48</ele>
        <time>2021-07-27T15:23:53Z</time>
      </trkpt>
      <trkpt lat="49.44884" lon="3.44061">
        <ele>165.96</ele>
        <time>2021-07-27T15:23:54Z</time>
      </trkpt>
      <trkpt lat="49.44874" lon="3.44048">
        <ele>165.96</ele>
        <time>2021-07-27T15:23:55Z</time>
      </trkpt>
      <trkpt lat="49.44864" lon="3.44036">
        <ele>165.48</ele>
        <time>2021-07-27T15:23:56Z</time>
      </trkpt>
      <trkpt lat="49.44854" lon="3.44023">
        <ele>165</ele>
        <time>2021-07-27T15:23:57Z</time>
      </trkpt>
      <trkpt lat="49.44844" lon="3.4401">
        <ele>165</ele>
        <time>2021-07-27T15:23:58Z</time>
      </trkpt>
      <trkpt lat="49.44832" lon="3.44004">
        <ele>165.96</ele>
        <time>2021-07-27T15:23:59Z</time>
      </trkpt>
      <trkpt lat="49.4482" lon="3.43998">
        <ele>167.41</ele>
        <time>2021-07-27T15:24:00Z</time>
      </trkpt>
      <trkpt lat="49.44809" lon="3.43993">
        <ele>167.89</ele>
        <time>2021-07-27T15:24:01Z</time>
      </trkpt>
      <trkpt lat="49.44799" lon="3.43988">
        <ele>167.41</ele>
        <time>2021-07-27T15:24:02Z</time>
      </trkpt>
      <trkpt lat="49.44777" lon="3.43981">
        <ele>167.89</ele>
        <time>2021-07-27T15:24:04Z</time>
      </trkpt>
      <trkpt lat="49.44767" lon="3.43978">
        <ele>167.41</ele>
        <time>2021-07-27T15:24:05Z</time>
      </trkpt>
      <trkpt lat="49.44759" lon="3.4397">
        <ele>168.85</ele>
        <time>2021-07-27T15:24:06Z</time>
      </trkpt>
      <trkpt lat="49.44751" lon="3.4396">
        <ele>168.85</ele>
        <time>2021-07-27T15:24:07Z</time>
      </trkpt>
      <trkpt lat="49.44747" lon="3.4395">
        <ele>168.85</ele>
        <time>2021-07-27T15:24:08Z</time>
      </trkpt>
      <trkpt lat="49.44743" lon="3.43936">
        <ele>169.33</ele>
        <time>2021-07-27T15:24:09Z</time>
      </trkpt>
      <trkpt lat="49.44739" lon="3.43921">
        <ele>170.29</ele>
        <time>2021-07-27T15:24:10Z</time>
      </trkpt>
      <trkpt lat="49.44738" lon="3.43907">
        <ele>171.73</ele>
        <time>2021-07-27T15:24:11Z</time>
      </trkpt>
      <trkpt lat="49.44737" lon="3.43893">
        <ele>172.21</ele>
        <time>2021-07-27T15:24:12Z</time>
      </trkpt>
      <trkpt lat="49.44736" lon="3.4388">
        <ele>171.73</ele>
        <time>2021-07-27T15:24:13Z</time>
      </trkpt>
      <trkpt lat="49.44735" lon="3.43859">
        <ele>171.25</ele>
        <time>2021-07-27T15:24:14Z</time>
      </trkpt>
      <trkpt lat="49.44735" lon="3.43859">
        <ele>171.25</ele>
        <time>2021-07-27T15:24:15Z</time>
      </trkpt>
      <trkpt lat="49.44734" lon="3.43849">
        <ele>170.77</ele>
        <time>2021-07-27T15:24:16Z</time>
      </trkpt>
      <trkpt lat="49.44745" lon="3.43838">
        <ele>170.77</ele>
        <time>2021-07-27T15:24:17Z</time>
      </trkpt>
      <trkpt lat="49.44748" lon="3.43802">
        <ele>170.29</ele>
        <time>2021-07-27T15:24:20Z</time>
      </trkpt>
      <trkpt lat="49.44754" lon="3.43796">
        <ele>170.29</ele>
        <time>2021-07-27T15:24:21Z</time>
      </trkpt>
      <trkpt lat="49.44762" lon="3.43789">
        <ele>169.81</ele>
        <time>2021-07-27T15:24:22Z</time>
      </trkpt>
      <trkpt lat="49.44864" lon="3.43688">
        <ele>169.33</ele>
        <time>2021-07-27T15:24:34Z</time>
      </trkpt>
      <trkpt lat="49.44869" lon="3.43683">
        <ele>168.37</ele>
        <time>2021-07-27T15:24:35Z</time>
      </trkpt>
      <trkpt lat="49.44873" lon="3.4368">
        <ele>168.37</ele>
        <time>2021-07-27T15:24:36Z</time>
      </trkpt>
      <trkpt lat="49.4488" lon="3.43687">
        <ele>167.89</ele>
        <time>2021-07-27T15:24:37Z</time>
      </trkpt>
      <trkpt lat="49.44895" lon="3.43692">
        <ele>166.93</ele>
        <time>2021-07-27T15:24:41Z</time>
      </trkpt>
      <trkpt lat="49.44898" lon="3.43687">
        <ele>166.93</ele>
        <time>2021-07-27T15:24:42Z</time>
      </trkpt>
      <trkpt lat="49.449" lon="3.43683">
        <ele>167.41</ele>
        <time>2021-07-27T15:24:43Z</time>
      </trkpt>
      <trkpt lat="49.44902" lon="3.43679">
        <ele>167.41</ele>
        <time>2021-07-27T15:24:44Z</time>
      </trkpt>
      <trkpt lat="49.44904" lon="3.43674">
        <ele>167.41</ele>
        <time>2021-07-27T15:24:45Z</time>
      </trkpt>
      <trkpt lat="49.44906" lon="3.4367">
        <ele>167.41</ele>
        <time>2021-07-27T15:24:46Z</time>
      </trkpt>
      <trkpt lat="49.44906" lon="3.4367">
        <ele>167.41</ele>
        <time>2021-07-27T15:24:47Z</time>
      </trkpt>
      <trkpt lat="49.44905" lon="3.43667">
        <ele>166.93</ele>
        <time>2021-07-27T15:24:48Z</time>
      </trkpt>
      <trkpt lat="49.44905" lon="3.43664">
        <ele>166.93</ele>
        <time>2021-07-27T15:24:49Z</time>
      </trkpt>
      <trkpt lat="49.44904" lon="3.43659">
        <ele>166.93</ele>
        <time>2021-07-27T15:24:50Z</time>
      </trkpt>
      <trkpt lat="49.44904" lon="3.43656">
        <ele>166.93</ele>
        <time>2021-07-27T15:24:51Z</time>
      </trkpt>
      <trkpt lat="49.44903" lon="3.43655">
        <ele>166.93</ele>
        <time>2021-07-27T15:24:52Z</time>
      </trkpt>
      <trkpt lat="49.44902" lon="3.43654">
        <ele>167.41</ele>
        <time>2021-07-27T15:24:53Z</time>
      </trkpt>
      <trkpt lat="49.449" lon="3.4365">
        <ele>166.93</ele>
        <time>2021-07-27T15:24:54Z</time>
      </trkpt>
      <trkpt lat="49.44896" lon="3.43645">
        <ele>166.93</ele>
        <time>2021-07-27T15:24:55Z</time>
      </trkpt>
      <trkpt lat="49.44894" lon="3.43643">
        <ele>166.45</ele>
        <time>2021-07-27T15:24:56Z</time>
      </trkpt>
      <trkpt lat="49.44888" lon="3.43645">
        <ele>165.96</ele>
        <time>2021-07-27T15:24:57Z</time>
      </trkpt>
      <trkpt lat="49.44882" lon="3.43647">
        <ele>165.96</ele>
        <time>2021-07-27T15:24:58Z</time>
      </trkpt>
      <trkpt lat="49.44877" lon="3.43648">
        <ele>165.96</ele>
        <time>2021-07-27T15:24:59Z</time>
      </trkpt>
      <trkpt lat="49.44872" lon="3.43662">
        <ele>165.96</ele>
        <time>2021-07-27T15:25:00Z</time>
      </trkpt>
      <trkpt lat="49.44872" lon="3.43662">
        <ele>165.96</ele>
        <time>2021-07-27T15:25:01Z</time>
      </trkpt>
      <trkpt lat="49.44872" lon="3.43669">
        <ele>166.45</ele>
        <time>2021-07-27T15:25:02Z</time>
      </trkpt>
      <trkpt lat="49.44873" lon="3.43676">
        <ele>166.45</ele>
        <time>2021-07-27T15:25:03Z</time>
      </trkpt>
      <trkpt lat="49.44875" lon="3.43681">
        <ele>166.45</ele>
        <time>2021-07-27T15:25:04Z</time>
      </trkpt>
      <trkpt lat="49.44879" lon="3.43686">
        <ele>166.45</ele>
        <time>2021-07-27T15:25:05Z</time>
      </trkpt>
      <trkpt lat="49.44882" lon="3.4369">
        <ele>166.45</ele>
        <time>2021-07-27T15:25:06Z</time>
      </trkpt>
      <trkpt lat="49.44885" lon="3.43692">
        <ele>166.45</ele>
        <time>2021-07-27T15:25:07Z</time>
      </trkpt>
      <trkpt lat="49.44889" lon="3.43692">
        <ele>165.96</ele>
        <time>2021-07-27T15:25:08Z</time>
      </trkpt>
      <trkpt lat="49.44892" lon="3.43692">
        <ele>165.96</ele>
        <time>2021-07-27T15:25:09Z</time>
      </trkpt>
      <trkpt lat="49.44895" lon="3.43692">
        <ele>165.96</ele>
        <time>2021-07-27T15:25:10Z</time>
      </trkpt>
      <trkpt lat="49.44898" lon="3.43688">
        <ele>165.96</ele>
        <time>2021-07-27T15:25:11Z</time>
      </trkpt>
      <trkpt lat="49.449" lon="3.43683">
        <ele>165.96</ele>
        <time>2021-07-27T15:25:12Z</time>
      </trkpt>
      <trkpt lat="49.44903" lon="3.43677">
        <ele>165.96</ele>
        <time>2021-07-27T15:25:13Z</time>
      </trkpt>
      <trkpt lat="49.44906" lon="3.4367">
        <ele>165.48</ele>
        <time>2021-07-27T15:25:14Z</time>
      </trkpt>
      <trkpt lat="49.44906" lon="3.4367">
        <ele>165.48</ele>
        <time>2021-07-27T15:25:15Z</time>
      </trkpt>
      <trkpt lat="49.44911" lon="3.43651">
        <ele>165</ele>
        <time>2021-07-27T15:25:16Z</time>
      </trkpt>
      <trkpt lat="49.44923" lon="3.43644">
        <ele>164.52</ele>
        <time>2021-07-27T15:25:17Z</time>
      </trkpt>
      <trkpt lat="49.44923" lon="3.43644">
        <ele>164.04</ele>
        <time>2021-07-27T15:25:18Z</time>
      </trkpt>
      <trkpt lat="49.44929" lon="3.4364">
        <ele>164.04</ele>
        <time>2021-07-27T15:25:19Z</time>
      </trkpt>
      <trkpt lat="49.44964" lon="3.43621">
        <ele>163.08</ele>
        <time>2021-07-27T15:25:24Z</time>
      </trkpt>
      <trkpt lat="49.44971" lon="3.43621">
        <ele>162.6</ele>
        <time>2021-07-27T15:25:25Z</time>
      </trkpt>
      <trkpt lat="49.44979" lon="3.43621">
        <ele>162.6</ele>
        <time>2021-07-27T15:25:26Z</time>
      </trkpt>
      <trkpt lat="49.44986" lon="3.43621">
        <ele>162.12</ele>
        <time>2021-07-27T15:25:27Z</time>
      </trkpt>
      <trkpt lat="49.44994" lon="3.43625">
        <ele>161.64</ele>
        <time>2021-07-27T15:25:28Z</time>
      </trkpt>
      <trkpt lat="49.45008" lon="3.43639">
        <ele>161.64</ele>
        <time>2021-07-27T15:25:29Z</time>
      </trkpt>
      <trkpt lat="49.45008" lon="3.43639">
        <ele>161.64</ele>
        <time>2021-07-27T15:25:30Z</time>
      </trkpt>
      <trkpt lat="49.45016" lon="3.43647">
        <ele>161.16</ele>
        <time>2021-07-27T15:25:31Z</time>
      </trkpt>
      <trkpt lat="49.4502" lon="3.43662">
        <ele>161.64</ele>
        <time>2021-07-27T15:25:32Z</time>
      </trkpt>
      <trkpt lat="49.45024" lon="3.43676">
        <ele>161.64</ele>
        <time>2021-07-27T15:25:33Z</time>
      </trkpt>
      <trkpt lat="49.45027" lon="3.4369">
        <ele>160.68</ele>
        <time>2021-07-27T15:25:34Z</time>
      </trkpt>
      <trkpt lat="49.45064" lon="3.43861">
        <ele>161.16</ele>
        <time>2021-07-27T15:25:47Z</time>
      </trkpt>
      <trkpt lat="49.45067" lon="3.43873">
        <ele>161.16</ele>
        <time>2021-07-27T15:25:48Z</time>
      </trkpt>
      <trkpt lat="49.45067" lon="3.43873">
        <ele>161.16</ele>
        <time>2021-07-27T15:25:49Z</time>
      </trkpt>
      <trkpt lat="49.45068" lon="3.43876">
        <ele>161.64</ele>
        <time>2021-07-27T15:26:01Z</time>
      </trkpt>
      <trkpt lat="49.45068" lon="3.43876">
        <ele>161.64</ele>
        <time>2021-07-27T15:26:25Z</time>
      </trkpt>
      <trkpt lat="49.45069" lon="3.43881">
        <ele>161.64</ele>
        <time>2021-07-27T15:26:26Z</time>
      </trkpt>
      <trkpt lat="49.45069" lon="3.43881">
        <ele>161.64</ele>
        <time>2021-07-27T15:26:27Z</time>
      </trkpt>
      <trkpt lat="49.45069" lon="3.43882">
        <ele>161.64</ele>
        <time>2021-07-27T15:26:28Z</time>
      </trkpt>
      <trkpt lat="49.45069" lon="3.43882">
        <ele>161.64</ele>
        <time>2021-07-27T15:26:41Z</time>
      </trkpt>
      <trkpt lat="49.45069" lon="3.43882">
        <ele>161.16</ele>
        <time>2021-07-27T15:26:54Z</time>
      </trkpt>
      <trkpt lat="49.45069" lon="3.43882">
        <ele>161.16</ele>
        <time>2021-07-27T15:26:55Z</time>
      </trkpt>
      <trkpt lat="49.45065" lon="3.43884">
        <ele>161.16</ele>
        <time>2021-07-27T15:26:56Z</time>
      </trkpt>
      <trkpt lat="49.45067" lon="3.43882">
        <ele>161.16</ele>
        <time>2021-07-27T15:26:57Z</time>
      </trkpt>
      <trkpt lat="49.45069" lon="3.4388">
        <ele>161.16</ele>
        <time>2021-07-27T15:26:58Z</time>
      </trkpt>
      <trkpt lat="49.45065" lon="3.43868">
        <ele>161.16</ele>
        <time>2021-07-27T15:26:59Z</time>
      </trkpt>
      <trkpt lat="49.45065" lon="3.43868">
        <ele>161.16</ele>
        <time>2021-07-27T15:27:00Z</time>
      </trkpt>
      <trkpt lat="49.45046" lon="3.43775">
        <ele>161.64</ele>
        <time>2021-07-27T15:27:08Z</time>
      </trkpt>
      <trkpt lat="49.45016" lon="3.43649">
        <ele>164.04</ele>
        <time>2021-07-27T15:27:15Z</time>
      </trkpt>
      <trkpt lat="49.45016" lon="3.43649">
        <ele>165.48</ele>
        <time>2021-07-27T15:27:16Z</time>
      </trkpt>
      <trkpt lat="49.45011" lon="3.43641">
        <ele>165.48</ele>
        <time>2021-07-27T15:27:17Z</time>
      </trkpt>
      <trkpt lat="49.45002" lon="3.43633">
        <ele>165</ele>
        <time>2021-07-27T15:27:18Z</time>
      </trkpt>
      <trkpt lat="49.44993" lon="3.43624">
        <ele>165.48</ele>
        <time>2021-07-27T15:27:19Z</time>
      </trkpt>
      <trkpt lat="49.44984" lon="3.43621">
        <ele>165.48</ele>
        <time>2021-07-27T15:27:20Z</time>
      </trkpt>
      <trkpt lat="49.44971" lon="3.43621">
        <ele>165.96</ele>
        <time>2021-07-27T15:27:21Z</time>
      </trkpt>
      <trkpt lat="49.44961" lon="3.43621">
        <ele>166.93</ele>
        <time>2021-07-27T15:27:22Z</time>
      </trkpt>
      <trkpt lat="49.44951" lon="3.43627">
        <ele>166.93</ele>
        <time>2021-07-27T15:27:23Z</time>
      </trkpt>
      <trkpt lat="49.4494" lon="3.43633">
        <ele>167.89</ele>
        <time>2021-07-27T15:27:24Z</time>
      </trkpt>
      <trkpt lat="49.44931" lon="3.43639">
        <ele>168.37</ele>
        <time>2021-07-27T15:27:25Z</time>
      </trkpt>
      <trkpt lat="49.44923" lon="3.43644">
        <ele>167.41</ele>
        <time>2021-07-27T15:27:26Z</time>
      </trkpt>
      <trkpt lat="49.44915" lon="3.43649">
        <ele>167.41</ele>
        <time>2021-07-27T15:27:27Z</time>
      </trkpt>
      <trkpt lat="49.44907" lon="3.43653">
        <ele>167.41</ele>
        <time>2021-07-27T15:27:28Z</time>
      </trkpt>
      <trkpt lat="49.44903" lon="3.43655">
        <ele>166.93</ele>
        <time>2021-07-27T15:27:29Z</time>
      </trkpt>
      <trkpt lat="49.44889" lon="3.43644">
        <ele>166.93</ele>
        <time>2021-07-27T15:27:30Z</time>
      </trkpt>
      <trkpt lat="49.44864" lon="3.43642">
        <ele>167.41</ele>
        <time>2021-07-27T15:27:32Z</time>
      </trkpt>
      <trkpt lat="49.44864" lon="3.43642">
        <ele>167.89</ele>
        <time>2021-07-27T15:27:33Z</time>
      </trkpt>
      <trkpt lat="49.44854" lon="3.43636">
        <ele>167.41</ele>
        <time>2021-07-27T15:27:34Z</time>
      </trkpt>
      <trkpt lat="49.44755" lon="3.43563">
        <ele>162.6</ele>
        <time>2021-07-27T15:27:43Z</time>
      </trkpt>
      <trkpt lat="49.44671" lon="3.43436">
        <ele>163.08</ele>
        <time>2021-07-27T15:27:50Z</time>
      </trkpt>
      <trkpt lat="49.44497" lon="3.43165">
        <ele>165</ele>
        <time>2021-07-27T15:28:02Z</time>
      </trkpt>
      <trkpt lat="49.44296" lon="3.42868">
        <ele>158.75</ele>
        <time>2021-07-27T15:28:14Z</time>
      </trkpt>
      <trkpt lat="49.44114" lon="3.42635">
        <ele>160.2</ele>
        <time>2021-07-27T15:28:24Z</time>
      </trkpt>
      <trkpt lat="49.43872" lon="3.42415">
        <ele>159.24</ele>
        <time>2021-07-27T15:28:36Z</time>
      </trkpt>
      <trkpt lat="49.4344" lon="3.4202">
        <ele>160.2</ele>
        <time>2021-07-27T15:28:58Z</time>
      </trkpt>
      <trkpt lat="49.43145" lon="3.4175">
        <ele>165</ele>
        <time>2021-07-27T15:29:14Z</time>
      </trkpt>
      <trkpt lat="49.42798" lon="3.41436">
        <ele>165.96</ele>
        <time>2021-07-27T15:29:33Z</time>
      </trkpt>
      <trkpt lat="49.42667" lon="3.41314">
        <ele>166.45</ele>
        <time>2021-07-27T15:29:42Z</time>
      </trkpt>
      <trkpt lat="49.42614" lon="3.41185">
        <ele>157.31</ele>
        <time>2021-07-27T15:29:49Z</time>
      </trkpt>
      <trkpt lat="49.42542" lon="3.40974">
        <ele>150.58</ele>
        <time>2021-07-27T15:30:01Z</time>
      </trkpt>
      <trkpt lat="49.42539" lon="3.40966">
        <ele>150.58</ele>
        <time>2021-07-27T15:30:02Z</time>
      </trkpt>
      <trkpt lat="49.42537" lon="3.4096">
        <ele>151.06</ele>
        <time>2021-07-27T15:30:03Z</time>
      </trkpt>
      <trkpt lat="49.4254" lon="3.40944">
        <ele>151.54</ele>
        <time>2021-07-27T15:30:04Z</time>
      </trkpt>
      <trkpt lat="49.4254" lon="3.40944">
        <ele>152.03</ele>
        <time>2021-07-27T15:30:05Z</time>
      </trkpt>
      <trkpt lat="49.4254" lon="3.40936">
        <ele>152.03</ele>
        <time>2021-07-27T15:30:06Z</time>
      </trkpt>
      <trkpt lat="49.42538" lon="3.4093">
        <ele>151.54</ele>
        <time>2021-07-27T15:30:07Z</time>
      </trkpt>
      <trkpt lat="49.42537" lon="3.40926">
        <ele>150.58</ele>
        <time>2021-07-27T15:30:08Z</time>
      </trkpt>
      <trkpt lat="49.42534" lon="3.40923">
        <ele>150.58</ele>
        <time>2021-07-27T15:30:09Z</time>
      </trkpt>
      <trkpt lat="49.42529" lon="3.4092">
        <ele>150.1</ele>
        <time>2021-07-27T15:30:10Z</time>
      </trkpt>
      <trkpt lat="49.42528" lon="3.40923">
        <ele>149.62</ele>
        <time>2021-07-27T15:30:11Z</time>
      </trkpt>
      <trkpt lat="49.42524" lon="3.40926">
        <ele>149.14</ele>
        <time>2021-07-27T15:30:12Z</time>
      </trkpt>
      <trkpt lat="49.42519" lon="3.4093">
        <ele>148.66</ele>
        <time>2021-07-27T15:30:13Z</time>
      </trkpt>
      <trkpt lat="49.42515" lon="3.40933">
        <ele>149.62</ele>
        <time>2021-07-27T15:30:14Z</time>
      </trkpt>
      <trkpt lat="49.42516" lon="3.40941">
        <ele>149.62</ele>
        <time>2021-07-27T15:30:15Z</time>
      </trkpt>
      <trkpt lat="49.42513" lon="3.40962">
        <ele>149.62</ele>
        <time>2021-07-27T15:30:16Z</time>
      </trkpt>
      <trkpt lat="49.42507" lon="3.40968">
        <ele>149.14</ele>
        <time>2021-07-27T15:30:17Z</time>
      </trkpt>
      <trkpt lat="49.42424" lon="3.41068">
        <ele>147.7</ele>
        <time>2021-07-27T15:30:27Z</time>
      </trkpt>
      <trkpt lat="49.42389" lon="3.41111">
        <ele>148.66</ele>
        <time>2021-07-27T15:30:31Z</time>
      </trkpt>
      <trkpt lat="49.42382" lon="3.4112">
        <ele>148.66</ele>
        <time>2021-07-27T15:30:32Z</time>
      </trkpt>
      <trkpt lat="49.42376" lon="3.41127">
        <ele>148.66</ele>
        <time>2021-07-27T15:30:33Z</time>
      </trkpt>
      <trkpt lat="49.4236" lon="3.41122">
        <ele>148.18</ele>
        <time>2021-07-27T15:30:35Z</time>
      </trkpt>
      <trkpt lat="49.42352" lon="3.41126">
        <ele>148.66</ele>
        <time>2021-07-27T15:30:36Z</time>
      </trkpt>
      <trkpt lat="49.42348" lon="3.4113">
        <ele>148.66</ele>
        <time>2021-07-27T15:30:37Z</time>
      </trkpt>
      <trkpt lat="49.42345" lon="3.41141">
        <ele>149.14</ele>
        <time>2021-07-27T15:30:38Z</time>
      </trkpt>
      <trkpt lat="49.42344" lon="3.4115">
        <ele>149.14</ele>
        <time>2021-07-27T15:30:39Z</time>
      </trkpt>
      <trkpt lat="49.42345" lon="3.41183">
        <ele>148.66</ele>
        <time>2021-07-27T15:30:40Z</time>
      </trkpt>
      <trkpt lat="49.42339" lon="3.4119">
        <ele>148.66</ele>
        <time>2021-07-27T15:30:41Z</time>
      </trkpt>
      <trkpt lat="49.42332" lon="3.41199">
        <ele>148.66</ele>
        <time>2021-07-27T15:30:42Z</time>
      </trkpt>
      <trkpt lat="49.42325" lon="3.4121">
        <ele>149.62</ele>
        <time>2021-07-27T15:30:43Z</time>
      </trkpt>
      <trkpt lat="49.42325" lon="3.4121">
        <ele>150.58</ele>
        <time>2021-07-27T15:30:44Z</time>
      </trkpt>
      <trkpt lat="49.42236" lon="3.41327">
        <ele>155.39</ele>
        <time>2021-07-27T15:30:53Z</time>
      </trkpt>
      <trkpt lat="49.42033" lon="3.41493">
        <ele>164.04</ele>
        <time>2021-07-27T15:31:07Z</time>
      </trkpt>
      <trkpt lat="49.41768" lon="3.41709">
        <ele>158.27</ele>
        <time>2021-07-27T15:31:25Z</time>
      </trkpt>
      <trkpt lat="49.41568" lon="3.41901">
        <ele>148.18</ele>
        <time>2021-07-27T15:31:38Z</time>
      </trkpt>
      <trkpt lat="49.41437" lon="3.4204">
        <ele>144.34</ele>
        <time>2021-07-27T15:31:47Z</time>
      </trkpt>
      <trkpt lat="49.413" lon="3.42163">
        <ele>141.45</ele>
        <time>2021-07-27T15:31:57Z</time>
      </trkpt>
      <trkpt lat="49.41227" lon="3.42193">
        <ele>140.01</ele>
        <time>2021-07-27T15:32:03Z</time>
      </trkpt>
      <trkpt lat="49.41157" lon="3.42206">
        <ele>140.97</ele>
        <time>2021-07-27T15:32:13Z</time>
      </trkpt>
      <trkpt lat="49.41108" lon="3.4222">
        <ele>138.09</ele>
        <time>2021-07-27T15:32:21Z</time>
      </trkpt>
      <trkpt lat="49.41007" lon="3.42297">
        <ele>137.13</ele>
        <time>2021-07-27T15:32:33Z</time>
      </trkpt>
      <trkpt lat="49.40999" lon="3.42301">
        <ele>137.13</ele>
        <time>2021-07-27T15:32:34Z</time>
      </trkpt>
      <trkpt lat="49.40971" lon="3.42318">
        <ele>135.68</ele>
        <time>2021-07-27T15:32:42Z</time>
      </trkpt>
      <trkpt lat="49.40908" lon="3.42355">
        <ele>132.8</ele>
        <time>2021-07-27T15:32:51Z</time>
      </trkpt>
      <trkpt lat="49.40835" lon="3.42395">
        <ele>130.4</ele>
        <time>2021-07-27T15:33:01Z</time>
      </trkpt>
      <trkpt lat="49.4083" lon="3.42396">
        <ele>130.88</ele>
        <time>2021-07-27T15:33:10Z</time>
      </trkpt>
      <trkpt lat="49.40829" lon="3.42396">
        <ele>130.88</ele>
        <time>2021-07-27T15:33:11Z</time>
      </trkpt>
      <trkpt lat="49.40828" lon="3.42394">
        <ele>130.88</ele>
        <time>2021-07-27T15:33:12Z</time>
      </trkpt>
      <trkpt lat="49.40827" lon="3.4239">
        <ele>130.88</ele>
        <time>2021-07-27T15:33:13Z</time>
      </trkpt>
      <trkpt lat="49.40813" lon="3.42329">
        <ele>130.4</ele>
        <time>2021-07-27T15:33:22Z</time>
      </trkpt>
      <trkpt lat="49.40812" lon="3.42321">
        <ele>129.92</ele>
        <time>2021-07-27T15:33:23Z</time>
      </trkpt>
      <trkpt lat="49.40809" lon="3.42314">
        <ele>129.43</ele>
        <time>2021-07-27T15:33:24Z</time>
      </trkpt>
      <trkpt lat="49.40805" lon="3.42307">
        <ele>128.95</ele>
        <time>2021-07-27T15:33:25Z</time>
      </trkpt>
      <trkpt lat="49.408" lon="3.42302">
        <ele>128.47</ele>
        <time>2021-07-27T15:33:26Z</time>
      </trkpt>
      <trkpt lat="49.40794" lon="3.42298">
        <ele>128.47</ele>
        <time>2021-07-27T15:33:27Z</time>
      </trkpt>
      <trkpt lat="49.40787" lon="3.42293">
        <ele>128.47</ele>
        <time>2021-07-27T15:33:28Z</time>
      </trkpt>
      <trkpt lat="49.4078" lon="3.42288">
        <ele>127.99</ele>
        <time>2021-07-27T15:33:29Z</time>
      </trkpt>
      <trkpt lat="49.40773" lon="3.42284">
        <ele>127.51</ele>
        <time>2021-07-27T15:33:30Z</time>
      </trkpt>
      <trkpt lat="49.4074" lon="3.42281">
        <ele>123.67</ele>
        <time>2021-07-27T15:33:34Z</time>
      </trkpt>
      <trkpt lat="49.40731" lon="3.42281">
        <ele>123.19</ele>
        <time>2021-07-27T15:33:35Z</time>
      </trkpt>
      <trkpt lat="49.40722" lon="3.42281">
        <ele>122.71</ele>
        <time>2021-07-27T15:33:36Z</time>
      </trkpt>
      <trkpt lat="49.40705" lon="3.42291">
        <ele>122.71</ele>
        <time>2021-07-27T15:33:37Z</time>
      </trkpt>
      <trkpt lat="49.40705" lon="3.42291">
        <ele>121.74</ele>
        <time>2021-07-27T15:33:38Z</time>
      </trkpt>
      <trkpt lat="49.40689" lon="3.42308">
        <ele>121.74</ele>
        <time>2021-07-27T15:33:39Z</time>
      </trkpt>
      <trkpt lat="49.40689" lon="3.42308">
        <ele>119.82</ele>
        <time>2021-07-27T15:33:40Z</time>
      </trkpt>
      <trkpt lat="49.40678" lon="3.42329">
        <ele>119.34</ele>
        <time>2021-07-27T15:33:41Z</time>
      </trkpt>
      <trkpt lat="49.40678" lon="3.42329">
        <ele>118.86</ele>
        <time>2021-07-27T15:33:42Z</time>
      </trkpt>
      <trkpt lat="49.40673" lon="3.4234">
        <ele>118.86</ele>
        <time>2021-07-27T15:33:43Z</time>
      </trkpt>
      <trkpt lat="49.40643" lon="3.4242">
        <ele>114.05</ele>
        <time>2021-07-27T15:33:50Z</time>
      </trkpt>
      <trkpt lat="49.4064" lon="3.4243">
        <ele>113.57</ele>
        <time>2021-07-27T15:33:51Z</time>
      </trkpt>
      <trkpt lat="49.40637" lon="3.42441">
        <ele>112.61</ele>
        <time>2021-07-27T15:33:52Z</time>
      </trkpt>
      <trkpt lat="49.40636" lon="3.42449">
        <ele>112.13</ele>
        <time>2021-07-27T15:33:53Z</time>
      </trkpt>
      <trkpt lat="49.40636" lon="3.42461">
        <ele>111.65</ele>
        <time>2021-07-27T15:33:54Z</time>
      </trkpt>
      <trkpt lat="49.4064" lon="3.42528">
        <ele>106.84</ele>
        <time>2021-07-27T15:34:00Z</time>
      </trkpt>
      <trkpt lat="49.40642" lon="3.42535">
        <ele>105.4</ele>
        <time>2021-07-27T15:34:01Z</time>
      </trkpt>
      <trkpt lat="49.40646" lon="3.42542">
        <ele>104.92</ele>
        <time>2021-07-27T15:34:02Z</time>
      </trkpt>
      <trkpt lat="49.4065" lon="3.42549">
        <ele>103.96</ele>
        <time>2021-07-27T15:34:03Z</time>
      </trkpt>
      <trkpt lat="49.40654" lon="3.42556">
        <ele>103</ele>
        <time>2021-07-27T15:34:04Z</time>
      </trkpt>
      <trkpt lat="49.40658" lon="3.42562">
        <ele>101.56</ele>
        <time>2021-07-27T15:34:05Z</time>
      </trkpt>
      <trkpt lat="49.40669" lon="3.42584">
        <ele>100.11</ele>
        <time>2021-07-27T15:34:08Z</time>
      </trkpt>
      <trkpt lat="49.40669" lon="3.42584">
        <ele>99.63</ele>
        <time>2021-07-27T15:34:09Z</time>
      </trkpt>
      <trkpt lat="49.40671" lon="3.42591">
        <ele>99.15</ele>
        <time>2021-07-27T15:34:10Z</time>
      </trkpt>
      <trkpt lat="49.40672" lon="3.42599">
        <ele>99.15</ele>
        <time>2021-07-27T15:34:11Z</time>
      </trkpt>
      <trkpt lat="49.40674" lon="3.42607">
        <ele>99.15</ele>
        <time>2021-07-27T15:34:12Z</time>
      </trkpt>
      <trkpt lat="49.40671" lon="3.42613">
        <ele>97.71</ele>
        <time>2021-07-27T15:34:13Z</time>
      </trkpt>
      <trkpt lat="49.40663" lon="3.42626">
        <ele>97.23</ele>
        <time>2021-07-27T15:34:14Z</time>
      </trkpt>
      <trkpt lat="49.40663" lon="3.42626">
        <ele>96.75</ele>
        <time>2021-07-27T15:34:15Z</time>
      </trkpt>
      <trkpt lat="49.40657" lon="3.4263">
        <ele>96.27</ele>
        <time>2021-07-27T15:34:16Z</time>
      </trkpt>
      <trkpt lat="49.4065" lon="3.42634">
        <ele>95.79</ele>
        <time>2021-07-27T15:34:17Z</time>
      </trkpt>
      <trkpt lat="49.40645" lon="3.42631">
        <ele>95.79</ele>
        <time>2021-07-27T15:34:18Z</time>
      </trkpt>
      <trkpt lat="49.40632" lon="3.42621">
        <ele>95.31</ele>
        <time>2021-07-27T15:34:19Z</time>
      </trkpt>
      <trkpt lat="49.40632" lon="3.42621">
        <ele>94.83</ele>
        <time>2021-07-27T15:34:20Z</time>
      </trkpt>
      <trkpt lat="49.40629" lon="3.42613">
        <ele>94.35</ele>
        <time>2021-07-27T15:34:21Z</time>
      </trkpt>
      <trkpt lat="49.40621" lon="3.42595">
        <ele>93.39</ele>
        <time>2021-07-27T15:34:23Z</time>
      </trkpt>
      <trkpt lat="49.40617" lon="3.42586">
        <ele>92.9</ele>
        <time>2021-07-27T15:34:24Z</time>
      </trkpt>
      <trkpt lat="49.40613" lon="3.42578">
        <ele>92.42</ele>
        <time>2021-07-27T15:34:25Z</time>
      </trkpt>
      <trkpt lat="49.40608" lon="3.42576">
        <ele>90.98</ele>
        <time>2021-07-27T15:34:26Z</time>
      </trkpt>
      <trkpt lat="49.40602" lon="3.42576">
        <ele>90.5</ele>
        <time>2021-07-27T15:34:27Z</time>
      </trkpt>
      <trkpt lat="49.40593" lon="3.42576">
        <ele>89.54</ele>
        <time>2021-07-27T15:34:28Z</time>
      </trkpt>
      <trkpt lat="49.40589" lon="3.42581">
        <ele>89.54</ele>
        <time>2021-07-27T15:34:29Z</time>
      </trkpt>
      <trkpt lat="49.40585" lon="3.42595">
        <ele>89.06</ele>
        <time>2021-07-27T15:34:30Z</time>
      </trkpt>
      <trkpt lat="49.40584" lon="3.42606">
        <ele>88.58</ele>
        <time>2021-07-27T15:34:31Z</time>
      </trkpt>
      <trkpt lat="49.40588" lon="3.42618">
        <ele>88.58</ele>
        <time>2021-07-27T15:34:32Z</time>
      </trkpt>
      <trkpt lat="49.40592" lon="3.42628">
        <ele>88.58</ele>
        <time>2021-07-27T15:34:33Z</time>
      </trkpt>
      <trkpt lat="49.40596" lon="3.42639">
        <ele>88.1</ele>
        <time>2021-07-27T15:34:34Z</time>
      </trkpt>
      <trkpt lat="49.406" lon="3.42649">
        <ele>87.62</ele>
        <time>2021-07-27T15:34:35Z</time>
      </trkpt>
      <trkpt lat="49.40604" lon="3.42659">
        <ele>87.62</ele>
        <time>2021-07-27T15:34:36Z</time>
      </trkpt>
      <trkpt lat="49.40611" lon="3.42678">
        <ele>87.62</ele>
        <time>2021-07-27T15:34:38Z</time>
      </trkpt>
      <trkpt lat="49.40615" lon="3.42687">
        <ele>87.62</ele>
        <time>2021-07-27T15:34:39Z</time>
      </trkpt>
      <trkpt lat="49.40616" lon="3.42698">
        <ele>87.62</ele>
        <time>2021-07-27T15:34:40Z</time>
      </trkpt>
      <trkpt lat="49.40616" lon="3.4271">
        <ele>88.1</ele>
        <time>2021-07-27T15:34:41Z</time>
      </trkpt>
      <trkpt lat="49.40615" lon="3.42719">
        <ele>88.1</ele>
        <time>2021-07-27T15:34:42Z</time>
      </trkpt>
      <trkpt lat="49.40612" lon="3.42728">
        <ele>87.62</ele>
        <time>2021-07-27T15:34:43Z</time>
      </trkpt>
      <trkpt lat="49.40607" lon="3.42732">
        <ele>87.62</ele>
        <time>2021-07-27T15:34:44Z</time>
      </trkpt>
      <trkpt lat="49.40596" lon="3.4274">
        <ele>87.14</ele>
        <time>2021-07-27T15:34:45Z</time>
      </trkpt>
      <trkpt lat="49.40591" lon="3.4274">
        <ele>87.14</ele>
        <time>2021-07-27T15:34:46Z</time>
      </trkpt>
      <trkpt lat="49.40591" lon="3.4274">
        <ele>86.66</ele>
        <time>2021-07-27T15:34:47Z</time>
      </trkpt>
      <trkpt lat="49.40575" lon="3.42732">
        <ele>86.66</ele>
        <time>2021-07-27T15:34:48Z</time>
      </trkpt>
      <trkpt lat="49.40575" lon="3.42732">
        <ele>86.18</ele>
        <time>2021-07-27T15:34:49Z</time>
      </trkpt>
      <trkpt lat="49.40572" lon="3.42724">
        <ele>86.18</ele>
        <time>2021-07-27T15:34:50Z</time>
      </trkpt>
      <trkpt lat="49.40569" lon="3.42712">
        <ele>85.69</ele>
        <time>2021-07-27T15:34:51Z</time>
      </trkpt>
      <trkpt lat="49.40569" lon="3.427">
        <ele>85.69</ele>
        <time>2021-07-27T15:34:52Z</time>
      </trkpt>
      <trkpt lat="49.40569" lon="3.4269">
        <ele>85.21</ele>
        <time>2021-07-27T15:34:53Z</time>
      </trkpt>
      <trkpt lat="49.40569" lon="3.4268">
        <ele>85.21</ele>
        <time>2021-07-27T15:34:54Z</time>
      </trkpt>
      <trkpt lat="49.40569" lon="3.42671">
        <ele>84.73</ele>
        <time>2021-07-27T15:34:55Z</time>
      </trkpt>
      <trkpt lat="49.40566" lon="3.42662">
        <ele>84.73</ele>
        <time>2021-07-27T15:34:56Z</time>
      </trkpt>
      <trkpt lat="49.40564" lon="3.42652">
        <ele>84.25</ele>
        <time>2021-07-27T15:34:57Z</time>
      </trkpt>
      <trkpt lat="49.40559" lon="3.42643">
        <ele>84.25</ele>
        <time>2021-07-27T15:34:58Z</time>
      </trkpt>
      <trkpt lat="49.40553" lon="3.42637">
        <ele>83.77</ele>
        <time>2021-07-27T15:34:59Z</time>
      </trkpt>
      <trkpt lat="49.40545" lon="3.42638">
        <ele>83.77</ele>
        <time>2021-07-27T15:35:00Z</time>
      </trkpt>
      <trkpt lat="49.40538" lon="3.4264">
        <ele>84.25</ele>
        <time>2021-07-27T15:35:01Z</time>
      </trkpt>
      <trkpt lat="49.40532" lon="3.42649">
        <ele>84.25</ele>
        <time>2021-07-27T15:35:02Z</time>
      </trkpt>
      <trkpt lat="49.40527" lon="3.42659">
        <ele>83.77</ele>
        <time>2021-07-27T15:35:03Z</time>
      </trkpt>
      <trkpt lat="49.40525" lon="3.42671">
        <ele>83.77</ele>
        <time>2021-07-27T15:35:04Z</time>
      </trkpt>
      <trkpt lat="49.40524" lon="3.42683">
        <ele>83.77</ele>
        <time>2021-07-27T15:35:05Z</time>
      </trkpt>
      <trkpt lat="49.40523" lon="3.42696">
        <ele>83.77</ele>
        <time>2021-07-27T15:35:06Z</time>
      </trkpt>
      <trkpt lat="49.40519" lon="3.42751">
        <ele>82.33</ele>
        <time>2021-07-27T15:35:10Z</time>
      </trkpt>
      <trkpt lat="49.40518" lon="3.42767">
        <ele>81.85</ele>
        <time>2021-07-27T15:35:11Z</time>
      </trkpt>
      <trkpt lat="49.40514" lon="3.42784">
        <ele>81.37</ele>
        <time>2021-07-27T15:35:12Z</time>
      </trkpt>
      <trkpt lat="49.40478" lon="3.42878">
        <ele>77.52</ele>
        <time>2021-07-27T15:35:18Z</time>
      </trkpt>
      <trkpt lat="49.40469" lon="3.42889">
        <ele>77.04</ele>
        <time>2021-07-27T15:35:19Z</time>
      </trkpt>
      <trkpt lat="49.4046" lon="3.429">
        <ele>76.56</ele>
        <time>2021-07-27T15:35:20Z</time>
      </trkpt>
      <trkpt lat="49.4045" lon="3.42907">
        <ele>76.08</ele>
        <time>2021-07-27T15:35:21Z</time>
      </trkpt>
      <trkpt lat="49.40439" lon="3.42913">
        <ele>75.6</ele>
        <time>2021-07-27T15:35:22Z</time>
      </trkpt>
      <trkpt lat="49.40323" lon="3.42976">
        <ele>72.72</ele>
        <time>2021-07-27T15:35:31Z</time>
      </trkpt>
      <trkpt lat="49.40287" lon="3.4301">
        <ele>71.27</ele>
        <time>2021-07-27T15:35:34Z</time>
      </trkpt>
      <trkpt lat="49.40277" lon="3.43021">
        <ele>71.27</ele>
        <time>2021-07-27T15:35:35Z</time>
      </trkpt>
      <trkpt lat="49.40204" lon="3.43181">
        <ele>68.39</ele>
        <time>2021-07-27T15:35:45Z</time>
      </trkpt>
      <trkpt lat="49.40104" lon="3.43455">
        <ele>65.03</ele>
        <time>2021-07-27T15:36:01Z</time>
      </trkpt>
      <trkpt lat="49.40088" lon="3.43498">
        <ele>64.55</ele>
        <time>2021-07-27T15:36:04Z</time>
      </trkpt>
      <trkpt lat="49.40082" lon="3.4351">
        <ele>63.58</ele>
        <time>2021-07-27T15:36:05Z</time>
      </trkpt>
      <trkpt lat="49.40075" lon="3.4352">
        <ele>63.1</ele>
        <time>2021-07-27T15:36:06Z</time>
      </trkpt>
      <trkpt lat="49.40068" lon="3.43531">
        <ele>62.62</ele>
        <time>2021-07-27T15:36:07Z</time>
      </trkpt>
      <trkpt lat="49.40058" lon="3.4354">
        <ele>62.14</ele>
        <time>2021-07-27T15:36:08Z</time>
      </trkpt>
      <trkpt lat="49.39935" lon="3.43638">
        <ele>62.62</ele>
        <time>2021-07-27T15:36:20Z</time>
      </trkpt>
      <trkpt lat="49.39858" lon="3.43688">
        <ele>65.99</ele>
        <time>2021-07-27T15:36:30Z</time>
      </trkpt>
      <trkpt lat="49.39851" lon="3.4369">
        <ele>66.95</ele>
        <time>2021-07-27T15:36:31Z</time>
      </trkpt>
      <trkpt lat="49.39851" lon="3.4369">
        <ele>67.43</ele>
        <time>2021-07-27T15:36:32Z</time>
      </trkpt>
      <trkpt lat="49.39852" lon="3.43701">
        <ele>67.43</ele>
        <time>2021-07-27T15:36:33Z</time>
      </trkpt>
      <trkpt lat="49.39854" lon="3.43704">
        <ele>67.91</ele>
        <time>2021-07-27T15:36:34Z</time>
      </trkpt>
      <trkpt lat="49.39854" lon="3.43704">
        <ele>67.91</ele>
        <time>2021-07-27T15:36:35Z</time>
      </trkpt>
      <trkpt lat="49.39856" lon="3.43708">
        <ele>67.91</ele>
        <time>2021-07-27T15:36:36Z</time>
      </trkpt>
      <trkpt lat="49.3986" lon="3.43713">
        <ele>67.91</ele>
        <time>2021-07-27T15:36:37Z</time>
      </trkpt>
      <trkpt lat="49.39867" lon="3.43724">
        <ele>67.91</ele>
        <time>2021-07-27T15:36:38Z</time>
      </trkpt>
      <trkpt lat="49.39867" lon="3.43724">
        <ele>67.91</ele>
        <time>2021-07-27T15:36:39Z</time>
      </trkpt>
      <trkpt lat="49.39935" lon="3.43786">
        <ele>67.91</ele>
        <time>2021-07-27T15:36:46Z</time>
      </trkpt>
      <trkpt lat="49.40081" lon="3.43912">
        <ele>79.93</ele>
        <time>2021-07-27T15:36:59Z</time>
      </trkpt>
      <trkpt lat="49.4013" lon="3.43959">
        <ele>85.21</ele>
        <time>2021-07-27T15:37:07Z</time>
      </trkpt>
      <trkpt lat="49.40149" lon="3.43975">
        <ele>86.18</ele>
        <time>2021-07-27T15:37:10Z</time>
      </trkpt>
      <trkpt lat="49.40155" lon="3.4398">
        <ele>86.18</ele>
        <time>2021-07-27T15:37:11Z</time>
      </trkpt>
      <trkpt lat="49.4016" lon="3.43986">
        <ele>86.18</ele>
        <time>2021-07-27T15:37:12Z</time>
      </trkpt>
      <trkpt lat="49.40163" lon="3.43996">
        <ele>86.66</ele>
        <time>2021-07-27T15:37:13Z</time>
      </trkpt>
      <trkpt lat="49.40163" lon="3.44005">
        <ele>86.18</ele>
        <time>2021-07-27T15:37:14Z</time>
      </trkpt>
      <trkpt lat="49.40163" lon="3.44016">
        <ele>86.18</ele>
        <time>2021-07-27T15:37:15Z</time>
      </trkpt>
      <trkpt lat="49.40159" lon="3.44027">
        <ele>86.66</ele>
        <time>2021-07-27T15:37:16Z</time>
      </trkpt>
      <trkpt lat="49.40152" lon="3.44032">
        <ele>86.66</ele>
        <time>2021-07-27T15:37:17Z</time>
      </trkpt>
      <trkpt lat="49.40144" lon="3.44034">
        <ele>86.66</ele>
        <time>2021-07-27T15:37:18Z</time>
      </trkpt>
      <trkpt lat="49.40129" lon="3.44033">
        <ele>86.66</ele>
        <time>2021-07-27T15:37:19Z</time>
      </trkpt>
      <trkpt lat="49.40027" lon="3.44015">
        <ele>89.54</ele>
        <time>2021-07-27T15:37:30Z</time>
      </trkpt>
      <trkpt lat="49.39946" lon="3.44">
        <ele>93.39</ele>
        <time>2021-07-27T15:37:37Z</time>
      </trkpt>
      <trkpt lat="49.39938" lon="3.43999">
        <ele>93.39</ele>
        <time>2021-07-27T15:37:38Z</time>
      </trkpt>
      <trkpt lat="49.3993" lon="3.44005">
        <ele>93.39</ele>
        <time>2021-07-27T15:37:39Z</time>
      </trkpt>
      <trkpt lat="49.39923" lon="3.4401">
        <ele>93.87</ele>
        <time>2021-07-27T15:37:40Z</time>
      </trkpt>
      <trkpt lat="49.39916" lon="3.4403">
        <ele>94.35</ele>
        <time>2021-07-27T15:37:41Z</time>
      </trkpt>
      <trkpt lat="49.39916" lon="3.4403">
        <ele>94.35</ele>
        <time>2021-07-27T15:37:42Z</time>
      </trkpt>
      <trkpt lat="49.39915" lon="3.44042">
        <ele>94.83</ele>
        <time>2021-07-27T15:37:43Z</time>
      </trkpt>
      <trkpt lat="49.39916" lon="3.44053">
        <ele>94.83</ele>
        <time>2021-07-27T15:37:44Z</time>
      </trkpt>
      <trkpt lat="49.39921" lon="3.44062">
        <ele>95.31</ele>
        <time>2021-07-27T15:37:45Z</time>
      </trkpt>
      <trkpt lat="49.39926" lon="3.4407">
        <ele>95.31</ele>
        <time>2021-07-27T15:37:46Z</time>
      </trkpt>
      <trkpt lat="49.39932" lon="3.44075">
        <ele>95.79</ele>
        <time>2021-07-27T15:37:47Z</time>
      </trkpt>
      <trkpt lat="49.39939" lon="3.4408">
        <ele>96.27</ele>
        <time>2021-07-27T15:37:48Z</time>
      </trkpt>
      <trkpt lat="49.39946" lon="3.44085">
        <ele>96.27</ele>
        <time>2021-07-27T15:37:49Z</time>
      </trkpt>
      <trkpt lat="49.39983" lon="3.44111">
        <ele>98.19</ele>
        <time>2021-07-27T15:37:55Z</time>
      </trkpt>
      <trkpt lat="49.4008" lon="3.44149">
        <ele>101.56</ele>
        <time>2021-07-27T15:38:05Z</time>
      </trkpt>
      <trkpt lat="49.4009" lon="3.44153">
        <ele>102.04</ele>
        <time>2021-07-27T15:38:06Z</time>
      </trkpt>
      <trkpt lat="49.40099" lon="3.44159">
        <ele>102.04</ele>
        <time>2021-07-27T15:38:07Z</time>
      </trkpt>
      <trkpt lat="49.40108" lon="3.44165">
        <ele>102.04</ele>
        <time>2021-07-27T15:38:08Z</time>
      </trkpt>
      <trkpt lat="49.40196" lon="3.44225">
        <ele>104.44</ele>
        <time>2021-07-27T15:38:18Z</time>
      </trkpt>
      <trkpt lat="49.40213" lon="3.44238">
        <ele>104.92</ele>
        <time>2021-07-27T15:38:21Z</time>
      </trkpt>
      <trkpt lat="49.40219" lon="3.44244">
        <ele>104.92</ele>
        <time>2021-07-27T15:38:22Z</time>
      </trkpt>
      <trkpt lat="49.40226" lon="3.4425">
        <ele>105.4</ele>
        <time>2021-07-27T15:38:23Z</time>
      </trkpt>
      <trkpt lat="49.40229" lon="3.44257">
        <ele>105.88</ele>
        <time>2021-07-27T15:38:24Z</time>
      </trkpt>
      <trkpt lat="49.4023" lon="3.44263">
        <ele>105.88</ele>
        <time>2021-07-27T15:38:25Z</time>
      </trkpt>
      <trkpt lat="49.40229" lon="3.44274">
        <ele>107.32</ele>
        <time>2021-07-27T15:38:26Z</time>
      </trkpt>
      <trkpt lat="49.40227" lon="3.44284">
        <ele>107.81</ele>
        <time>2021-07-27T15:38:27Z</time>
      </trkpt>
      <trkpt lat="49.40226" lon="3.44295">
        <ele>108.29</ele>
        <time>2021-07-27T15:38:28Z</time>
      </trkpt>
      <trkpt lat="49.40221" lon="3.44303">
        <ele>108.29</ele>
        <time>2021-07-27T15:38:29Z</time>
      </trkpt>
      <trkpt lat="49.40212" lon="3.44304">
        <ele>108.77</ele>
        <time>2021-07-27T15:38:30Z</time>
      </trkpt>
      <trkpt lat="49.40204" lon="3.44305">
        <ele>109.25</ele>
        <time>2021-07-27T15:38:31Z</time>
      </trkpt>
      <trkpt lat="49.40197" lon="3.44302">
        <ele>109.73</ele>
        <time>2021-07-27T15:38:32Z</time>
      </trkpt>
      <trkpt lat="49.4019" lon="3.44297">
        <ele>109.73</ele>
        <time>2021-07-27T15:38:33Z</time>
      </trkpt>
      <trkpt lat="49.40103" lon="3.44245">
        <ele>113.57</ele>
        <time>2021-07-27T15:38:44Z</time>
      </trkpt>
      <trkpt lat="49.40029" lon="3.44251">
        <ele>118.38</ele>
        <time>2021-07-27T15:38:52Z</time>
      </trkpt>
      <trkpt lat="49.3993" lon="3.44271">
        <ele>123.19</ele>
        <time>2021-07-27T15:39:02Z</time>
      </trkpt>
      <trkpt lat="49.39858" lon="3.44276">
        <ele>127.51</ele>
        <time>2021-07-27T15:39:11Z</time>
      </trkpt>
      <trkpt lat="49.39804" lon="3.44281">
        <ele>130.88</ele>
        <time>2021-07-27T15:39:19Z</time>
      </trkpt>
      <trkpt lat="49.39795" lon="3.44283">
        <ele>131.36</ele>
        <time>2021-07-27T15:39:20Z</time>
      </trkpt>
      <trkpt lat="49.39786" lon="3.44284">
        <ele>131.84</ele>
        <time>2021-07-27T15:39:21Z</time>
      </trkpt>
      <trkpt lat="49.39778" lon="3.44286">
        <ele>131.84</ele>
        <time>2021-07-27T15:39:22Z</time>
      </trkpt>
      <trkpt lat="49.3977" lon="3.44291">
        <ele>131.84</ele>
        <time>2021-07-27T15:39:23Z</time>
      </trkpt>
      <trkpt lat="49.39763" lon="3.44296">
        <ele>132.8</ele>
        <time>2021-07-27T15:39:24Z</time>
      </trkpt>
      <trkpt lat="49.39758" lon="3.44308">
        <ele>132.8</ele>
        <time>2021-07-27T15:39:25Z</time>
      </trkpt>
      <trkpt lat="49.39754" lon="3.44319">
        <ele>133.76</ele>
        <time>2021-07-27T15:39:26Z</time>
      </trkpt>
      <trkpt lat="49.39749" lon="3.44331">
        <ele>134.72</ele>
        <time>2021-07-27T15:39:27Z</time>
      </trkpt>
      <trkpt lat="49.39747" lon="3.44344">
        <ele>134.24</ele>
        <time>2021-07-27T15:39:28Z</time>
      </trkpt>
      <trkpt lat="49.39722" lon="3.44513">
        <ele>142.41</ele>
        <time>2021-07-27T15:39:38Z</time>
      </trkpt>
      <trkpt lat="49.39676" lon="3.44696">
        <ele>149.14</ele>
        <time>2021-07-27T15:39:49Z</time>
      </trkpt>
      <trkpt lat="49.39676" lon="3.4489">
        <ele>151.54</ele>
        <time>2021-07-27T15:40:00Z</time>
      </trkpt>
      <trkpt lat="49.39681" lon="3.44976">
        <ele>151.06</ele>
        <time>2021-07-27T15:40:05Z</time>
      </trkpt>
      <trkpt lat="49.39686" lon="3.44993">
        <ele>150.1</ele>
        <time>2021-07-27T15:40:06Z</time>
      </trkpt>
      <trkpt lat="49.3969" lon="3.45011">
        <ele>149.62</ele>
        <time>2021-07-27T15:40:07Z</time>
      </trkpt>
      <trkpt lat="49.39735" lon="3.45174">
        <ele>149.62</ele>
        <time>2021-07-27T15:40:16Z</time>
      </trkpt>
      <trkpt lat="49.39738" lon="3.45192">
        <ele>150.1</ele>
        <time>2021-07-27T15:40:17Z</time>
      </trkpt>
      <trkpt lat="49.3975" lon="3.45371">
        <ele>155.39</ele>
        <time>2021-07-27T15:40:27Z</time>
      </trkpt>
      <trkpt lat="49.39752" lon="3.45383">
        <ele>154.91</ele>
        <time>2021-07-27T15:40:28Z</time>
      </trkpt>
      <trkpt lat="49.39754" lon="3.45391">
        <ele>154.43</ele>
        <time>2021-07-27T15:40:29Z</time>
      </trkpt>
      <trkpt lat="49.39761" lon="3.45399">
        <ele>154.43</ele>
        <time>2021-07-27T15:40:30Z</time>
      </trkpt>
      <trkpt lat="49.39767" lon="3.45406">
        <ele>153.95</ele>
        <time>2021-07-27T15:40:31Z</time>
      </trkpt>
      <trkpt lat="49.39771" lon="3.45411">
        <ele>154.43</ele>
        <time>2021-07-27T15:40:32Z</time>
      </trkpt>
      <trkpt lat="49.39777" lon="3.45411">
        <ele>154.43</ele>
        <time>2021-07-27T15:40:33Z</time>
      </trkpt>
      <trkpt lat="49.39784" lon="3.45412">
        <ele>154.43</ele>
        <time>2021-07-27T15:40:34Z</time>
      </trkpt>
      <trkpt lat="49.39791" lon="3.45413">
        <ele>154.91</ele>
        <time>2021-07-27T15:40:35Z</time>
      </trkpt>
      <trkpt lat="49.39887" lon="3.45387">
        <ele>158.75</ele>
        <time>2021-07-27T15:40:46Z</time>
      </trkpt>
      <trkpt lat="49.39967" lon="3.45365">
        <ele>162.12</ele>
        <time>2021-07-27T15:40:55Z</time>
      </trkpt>
      <trkpt lat="49.39992" lon="3.4535">
        <ele>161.64</ele>
        <time>2021-07-27T15:41:06Z</time>
      </trkpt>
      <trkpt lat="49.39995" lon="3.45348">
        <ele>161.64</ele>
        <time>2021-07-27T15:41:07Z</time>
      </trkpt>
      <trkpt lat="49.40025" lon="3.45286">
        <ele>162.12</ele>
        <time>2021-07-27T15:41:16Z</time>
      </trkpt>
      <trkpt lat="49.4003" lon="3.45277">
        <ele>162.12</ele>
        <time>2021-07-27T15:41:17Z</time>
      </trkpt>
      <trkpt lat="49.40035" lon="3.45272">
        <ele>161.64</ele>
        <time>2021-07-27T15:41:18Z</time>
      </trkpt>
      <trkpt lat="49.40041" lon="3.45268">
        <ele>161.64</ele>
        <time>2021-07-27T15:41:19Z</time>
      </trkpt>
      <trkpt lat="49.40045" lon="3.45265">
        <ele>161.16</ele>
        <time>2021-07-27T15:41:20Z</time>
      </trkpt>
      <trkpt lat="49.4005" lon="3.45266">
        <ele>161.64</ele>
        <time>2021-07-27T15:41:21Z</time>
      </trkpt>
      <trkpt lat="49.40055" lon="3.45267">
        <ele>161.16</ele>
        <time>2021-07-27T15:41:22Z</time>
      </trkpt>
      <trkpt lat="49.4006" lon="3.45268">
        <ele>161.16</ele>
        <time>2021-07-27T15:41:23Z</time>
      </trkpt>
      <trkpt lat="49.40065" lon="3.4527">
        <ele>160.68</ele>
        <time>2021-07-27T15:41:24Z</time>
      </trkpt>
      <trkpt lat="49.40113" lon="3.45302">
        <ele>159.72</ele>
        <time>2021-07-27T15:41:37Z</time>
      </trkpt>
      <trkpt lat="49.40119" lon="3.45306">
        <ele>159.72</ele>
        <time>2021-07-27T15:41:42Z</time>
      </trkpt>
      <trkpt lat="49.4012" lon="3.45311">
        <ele>160.2</ele>
        <time>2021-07-27T15:41:43Z</time>
      </trkpt>
      <trkpt lat="49.40123" lon="3.45319">
        <ele>159.72</ele>
        <time>2021-07-27T15:41:51Z</time>
      </trkpt>
      <trkpt lat="49.40124" lon="3.45324">
        <ele>159.24</ele>
        <time>2021-07-27T15:41:52Z</time>
      </trkpt>
      <trkpt lat="49.40118" lon="3.45305">
        <ele>159.24</ele>
        <time>2021-07-27T15:41:53Z</time>
      </trkpt>
      <trkpt lat="49.40118" lon="3.45305">
        <ele>159.24</ele>
        <time>2021-07-27T15:41:54Z</time>
      </trkpt>
      <trkpt lat="49.40123" lon="3.45321">
        <ele>158.75</ele>
        <time>2021-07-27T15:41:55Z</time>
      </trkpt>
      <trkpt lat="49.40122" lon="3.45318">
        <ele>158.75</ele>
        <time>2021-07-27T15:41:56Z</time>
      </trkpt>
      <trkpt lat="49.40121" lon="3.45315">
        <ele>158.75</ele>
        <time>2021-07-27T15:41:57Z</time>
      </trkpt>
      <trkpt lat="49.4012" lon="3.4531">
        <ele>158.75</ele>
        <time>2021-07-27T15:41:58Z</time>
      </trkpt>
      <trkpt lat="49.40118" lon="3.45305">
        <ele>158.75</ele>
        <time>2021-07-27T15:41:59Z</time>
      </trkpt>
      <trkpt lat="49.40118" lon="3.45305">
        <ele>158.75</ele>
        <time>2021-07-27T15:42:00Z</time>
      </trkpt>
      <trkpt lat="49.40115" lon="3.45303">
        <ele>158.75</ele>
        <time>2021-07-27T15:42:01Z</time>
      </trkpt>
      <trkpt lat="49.40112" lon="3.45301">
        <ele>158.75</ele>
        <time>2021-07-27T15:42:02Z</time>
      </trkpt>
      <trkpt lat="49.40108" lon="3.45298">
        <ele>158.27</ele>
        <time>2021-07-27T15:42:03Z</time>
      </trkpt>
      <trkpt lat="49.40091" lon="3.45286">
        <ele>160.2</ele>
        <time>2021-07-27T15:42:08Z</time>
      </trkpt>
      <trkpt lat="49.40089" lon="3.45284">
        <ele>160.2</ele>
        <time>2021-07-27T15:42:09Z</time>
      </trkpt>
      <trkpt lat="49.40095" lon="3.45288">
        <ele>161.16</ele>
        <time>2021-07-27T15:42:12Z</time>
      </trkpt>
      <trkpt lat="49.40097" lon="3.4529">
        <ele>161.16</ele>
        <time>2021-07-27T15:42:13Z</time>
      </trkpt>
      <trkpt lat="49.40104" lon="3.45295">
        <ele>160.2</ele>
        <time>2021-07-27T15:42:16Z</time>
      </trkpt>
      <trkpt lat="49.40098" lon="3.45325">
        <ele>160.2</ele>
        <time>2021-07-27T15:42:27Z</time>
      </trkpt>
      <trkpt lat="49.40098" lon="3.45327">
        <ele>160.2</ele>
        <time>2021-07-27T15:48:03Z</time>
      </trkpt>
      <trkpt lat="49.40098" lon="3.45327">
        <ele>160.68</ele>
        <time>2021-07-27T15:49:22Z</time>
      </trkpt>
      <trkpt lat="49.40098" lon="3.45328">
        <ele>161.16</ele>
        <time>2021-07-27T15:50:27Z</time>
      </trkpt>
      <trkpt lat="49.40098" lon="3.45328">
        <ele>160.68</ele>
        <time>2021-07-27T15:51:53Z</time>
      </trkpt>
      <trkpt lat="49.40097" lon="3.45329">
        <ele>160.68</ele>
        <time>2021-07-27T15:53:37Z</time>
      </trkpt>
      <trkpt lat="49.40097" lon="3.4533">
        <ele>160.68</ele>
        <time>2021-07-27T15:55:04Z</time>
      </trkpt>
    </trkseg>
  </trk>
</gpx>